<?xml version='1.0' encoding='UTF-8'?><gpx version="1.1" creator="JPX - https://github.com/jenetics/jpx" xmlns="http://www.topografix.com/GPX/1/1"><trk><trkseg><trkpt lat="46.212574464153704" lon="13.078284685662993"><ele>164.0</ele><time>2026-04-06T11:51:22Z</time></trkpt><trkpt lat="46.21261242029004" lon="13.078370426974859"><ele>164.0</ele><time>2026-04-06T11:52:51Z</time></trkpt><trkpt lat="46.21270141433873" lon="13.07839033683216"><ele>164.0</ele><time>2026-04-06T11:52:53Z</time></trkpt><trkpt lat="46.2128120970406" lon="13.07840958742434"><ele>164.0</ele><time>2026-04-06T11:52:55Z</time></trkpt><trkpt lat="46.212918437225674" lon="13.078403740973583"><ele>164.0</ele><time>2026-04-06T11:52:57Z</time></trkpt><trkpt lat="46.21304201997251" lon="13.078399844755127"><ele>163.99999999999997</ele><time>2026-04-06T11:52:59Z</time></trkpt><trkpt lat="46.213107575234204" lon="13.07840153344227"><ele>164.0</ele><time>2026-04-06T11:53:00Z</time></trkpt><trkpt lat="46.21317567078735" lon="13.078421058287377"><ele>164.0</ele><time>2026-04-06T11:53:01Z</time></trkpt><trkpt lat="46.21324428080617" lon="13.078447748127184"><ele>164.0</ele><time>2026-04-06T11:53:02Z</time></trkpt><trkpt lat="46.21331441281058" lon="13.078483530176552"><ele>164.0</ele><time>2026-04-06T11:53:03Z</time></trkpt><trkpt lat="46.21338303444906" lon="13.078521367233703"><ele>163.99999999999997</ele><time>2026-04-06T11:53:04Z</time></trkpt><trkpt lat="46.213449337921055" lon="13.078570236302808"><ele>164.0</ele><time>2026-04-06T11:53:05Z</time></trkpt><trkpt lat="46.21351258583729" lon="13.078621879758948"><ele>163.5</ele><time>2026-04-06T11:53:06Z</time></trkpt><trkpt lat="46.213573077923165" lon="13.078676961349752"><ele>163.0</ele><time>2026-04-06T11:53:07Z</time></trkpt><trkpt lat="46.21363330519694" lon="13.078740273114082"><ele>162.5</ele><time>2026-04-06T11:53:08Z</time></trkpt><trkpt lat="46.213691846522835" lon="13.078804961567752"><ele>162.0</ele><time>2026-04-06T11:53:09Z</time></trkpt><trkpt lat="46.21375567646595" lon="13.078868015591556"><ele>161.5</ele><time>2026-04-06T11:53:10Z</time></trkpt><trkpt lat="46.21382310298229" lon="13.078925921146407"><ele>161.0</ele><time>2026-04-06T11:53:11Z</time></trkpt><trkpt lat="46.21388934835037" lon="13.0789879721015"><ele>161.0</ele><time>2026-04-06T11:53:12Z</time></trkpt><trkpt lat="46.21394316679392" lon="13.079039161872165"><ele>161.0</ele><time>2026-04-06T11:53:13Z</time></trkpt><trkpt lat="46.214038268351274" lon="13.079133171448131"><ele>161.0</ele><time>2026-04-06T11:53:15Z</time></trkpt><trkpt lat="46.214101507156535" lon="13.079184190254571"><ele>161.0</ele><time>2026-04-06T11:53:16Z</time></trkpt><trkpt lat="46.2141685605106" lon="13.07924505128864"><ele>161.0</ele><time>2026-04-06T11:53:17Z</time></trkpt><trkpt lat="46.21423892834825" lon="13.079313895164233"><ele>161.0</ele><time>2026-04-06T11:53:18Z</time></trkpt><trkpt lat="46.21431178878628" lon="13.079387053690022"><ele>161.16666666666666</ele><time>2026-04-06T11:53:19Z</time></trkpt><trkpt lat="46.21437568053102" lon="13.079452544877826"><ele>161.33333333333331</ele><time>2026-04-06T11:53:20Z</time></trkpt><trkpt lat="46.214433230817185" lon="13.079510573922436"><ele>161.5</ele><time>2026-04-06T11:53:21Z</time></trkpt><trkpt lat="46.21449718431279" lon="13.079576404962458"><ele>161.66666666666666</ele><time>2026-04-06T11:53:22Z</time></trkpt><trkpt lat="46.21456817902888" lon="13.079643508436071"><ele>161.83333333333334</ele><time>2026-04-06T11:53:23Z</time></trkpt><trkpt lat="46.21463393560607" lon="13.07970763093619"><ele>162.0</ele><time>2026-04-06T11:53:24Z</time></trkpt><trkpt lat="46.21470506670097" lon="13.079783496594638"><ele>162.0</ele><time>2026-04-06T11:53:25Z</time></trkpt><trkpt lat="46.21477501343284" lon="13.07985616168003"><ele>162.0</ele><time>2026-04-06T11:53:26Z</time></trkpt><trkpt lat="46.21483438756577" lon="13.079917276742004"><ele>162.0</ele><time>2026-04-06T11:53:27Z</time></trkpt><trkpt lat="46.214937774776324" lon="13.08002236367519"><ele>162.0</ele><time>2026-04-06T11:53:29Z</time></trkpt><trkpt lat="46.21500083314752" lon="13.080092511548811"><ele>162.0</ele><time>2026-04-06T11:53:30Z</time></trkpt><trkpt lat="46.21508275404723" lon="13.08015740168973"><ele>162.2</ele><time>2026-04-06T11:53:31Z</time></trkpt><trkpt lat="46.21518749310525" lon="13.080208157686801"><ele>162.39999999999998</ele><time>2026-04-06T11:53:32Z</time></trkpt><trkpt lat="46.21528504499588" lon="13.080240539581142"><ele>162.60000000000002</ele><time>2026-04-06T11:53:33Z</time></trkpt><trkpt lat="46.21536661145291" lon="13.080273880591355"><ele>162.8</ele><time>2026-04-06T11:53:34Z</time></trkpt><trkpt lat="46.21545739797993" lon="13.080306096549927"><ele>163.0</ele><time>2026-04-06T11:53:35Z</time></trkpt><trkpt lat="46.215560530181904" lon="13.080332550836378"><ele>163.0</ele><time>2026-04-06T11:53:36Z</time></trkpt><trkpt lat="46.21565834662839" lon="13.080349449697273"><ele>163.0</ele><time>2026-04-06T11:53:37Z</time></trkpt><trkpt lat="46.21574045288756" lon="13.080383703053732"><ele>163.0</ele><time>2026-04-06T11:53:38Z</time></trkpt><trkpt lat="46.21581370254106" lon="13.080389738881616"><ele>163.0</ele><time>2026-04-06T11:53:39Z</time></trkpt><trkpt lat="46.215892078075996" lon="13.080408759045543"><ele>163.0</ele><time>2026-04-06T11:53:40Z</time></trkpt><trkpt lat="46.21599011438795" lon="13.080425323175312"><ele>163.0</ele><time>2026-04-06T11:53:41Z</time></trkpt><trkpt lat="46.21608595237426" lon="13.080486174097917"><ele>163.0</ele><time>2026-04-06T11:53:42Z</time></trkpt><trkpt lat="46.21617194861563" lon="13.080546464550233"><ele>163.0</ele><time>2026-04-06T11:53:43Z</time></trkpt><trkpt lat="46.2162445911152" lon="13.080587299770574"><ele>163.0</ele><time>2026-04-06T11:53:44Z</time></trkpt><trkpt lat="46.21631115980708" lon="13.080637418445273"><ele>163.0</ele><time>2026-04-06T11:53:45Z</time></trkpt><trkpt lat="46.216372835200204" lon="13.080712754495083"><ele>163.0</ele><time>2026-04-06T11:53:46Z</time></trkpt><trkpt lat="46.21641330149996" lon="13.08082731055768"><ele>163.0</ele><time>2026-04-06T11:53:47Z</time></trkpt><trkpt lat="46.216438925247964" lon="13.080954301042498"><ele>163.16666666666669</ele><time>2026-04-06T11:53:48Z</time></trkpt><trkpt lat="46.216445546820054" lon="13.081078653577318"><ele>163.33333333333334</ele><time>2026-04-06T11:53:49Z</time></trkpt><trkpt lat="46.21643880142855" lon="13.081182276828612"><ele>163.5</ele><time>2026-04-06T11:53:50Z</time></trkpt><trkpt lat="46.21642316714371" lon="13.081356652525828"><ele>163.66666666666666</ele><time>2026-04-06T11:53:52Z</time></trkpt><trkpt lat="46.216428218470305" lon="13.0814532584866"><ele>163.83333333333331</ele><time>2026-04-06T11:53:53Z</time></trkpt><trkpt lat="46.21645834577276" lon="13.081554030575049"><ele>164.0</ele><time>2026-04-06T11:53:54Z</time></trkpt><trkpt lat="46.216518644491146" lon="13.081655417165683"><ele>164.0</ele><time>2026-04-06T11:53:55Z</time></trkpt><trkpt lat="46.21658866661659" lon="13.081742844702722"><ele>164.0</ele><time>2026-04-06T11:53:56Z</time></trkpt><trkpt lat="46.21669023962907" lon="13.081805236378205"><ele>164.0</ele><time>2026-04-06T11:53:57Z</time></trkpt><trkpt lat="46.216796463693726" lon="13.081858793759183"><ele>164.0</ele><time>2026-04-06T11:53:58Z</time></trkpt><trkpt lat="46.216903855379165" lon="13.081922630648826"><ele>164.0</ele><time>2026-04-06T11:53:59Z</time></trkpt><trkpt lat="46.21700966808006" lon="13.081993437392752"><ele>164.0</ele><time>2026-04-06T11:54:00Z</time></trkpt><trkpt lat="46.21711051863643" lon="13.082055545710533"><ele>164.0</ele><time>2026-04-06T11:54:01Z</time></trkpt><trkpt lat="46.217202604366655" lon="13.082109408067899"><ele>164.0</ele><time>2026-04-06T11:54:02Z</time></trkpt><trkpt lat="46.217301662612364" lon="13.082170736999094"><ele>164.0</ele><time>2026-04-06T11:54:03Z</time></trkpt><trkpt lat="46.21740947553052" lon="13.082247013538284"><ele>164.0</ele><time>2026-04-06T11:54:04Z</time></trkpt><trkpt lat="46.217525870431444" lon="13.082313344796203"><ele>164.0</ele><time>2026-04-06T11:54:05Z</time></trkpt><trkpt lat="46.21763933471018" lon="13.082377070082625"><ele>164.0</ele><time>2026-04-06T11:54:06Z</time></trkpt><trkpt lat="46.217742722536094" lon="13.082439566412187"><ele>164.0</ele><time>2026-04-06T11:54:07Z</time></trkpt><trkpt lat="46.217836561413506" lon="13.082496571198762"><ele>164.0</ele><time>2026-04-06T11:54:08Z</time></trkpt><trkpt lat="46.217932179877344" lon="13.082554615400493"><ele>164.0</ele><time>2026-04-06T11:54:09Z</time></trkpt><trkpt lat="46.21801828784541" lon="13.08260977699692"><ele>164.0</ele><time>2026-04-06T11:54:10Z</time></trkpt><trkpt lat="46.2181074346907" lon="13.08266992161698"><ele>164.0</ele><time>2026-04-06T11:54:11Z</time></trkpt><trkpt lat="46.218172477169404" lon="13.08271973733498"><ele>164.0</ele><time>2026-04-06T11:54:12Z</time></trkpt><trkpt lat="46.218236421636355" lon="13.082767072921957"><ele>164.0</ele><time>2026-04-06T11:54:13Z</time></trkpt><trkpt lat="46.218293746357546" lon="13.082832529372695"><ele>164.0</ele><time>2026-04-06T11:54:14Z</time></trkpt><trkpt lat="46.21834670145694" lon="13.082898946196867"><ele>164.0</ele><time>2026-04-06T11:54:15Z</time></trkpt><trkpt lat="46.21843759463007" lon="13.082998091765862"><ele>164.2</ele><time>2026-04-06T11:54:17Z</time></trkpt><trkpt lat="46.218517475800695" lon="13.083088266682154"><ele>164.39999999999998</ele><time>2026-04-06T11:54:19Z</time></trkpt><trkpt lat="46.21860251208414" lon="13.083119293286627"><ele>164.6</ele><time>2026-04-06T11:54:45Z</time></trkpt><trkpt lat="46.21873387144415" lon="13.083096288536755"><ele>164.8</ele><time>2026-04-06T11:54:47Z</time></trkpt><trkpt lat="46.21881528583341" lon="13.08311925544001"><ele>165.0</ele><time>2026-04-06T11:54:48Z</time></trkpt><trkpt lat="46.21889638051853" lon="13.083171179491265"><ele>165.0</ele><time>2026-04-06T11:54:49Z</time></trkpt><trkpt lat="46.218984178195136" lon="13.083237433566612"><ele>165.0</ele><time>2026-04-06T11:54:50Z</time></trkpt><trkpt lat="46.21908601700797" lon="13.083311810038303"><ele>165.0</ele><time>2026-04-06T11:54:51Z</time></trkpt><trkpt lat="46.219207446331524" lon="13.083396342577233"><ele>165.0</ele><time>2026-04-06T11:54:52Z</time></trkpt><trkpt lat="46.21934330764345" lon="13.083491461548872"><ele>164.5</ele><time>2026-04-06T11:54:53Z</time></trkpt><trkpt lat="46.21946707027598" lon="13.083575338855812"><ele>164.0</ele><time>2026-04-06T11:54:54Z</time></trkpt><trkpt lat="46.219586645379785" lon="13.08365109170122"><ele>163.5</ele><time>2026-04-06T11:54:55Z</time></trkpt><trkpt lat="46.21969959368416" lon="13.08372216379422"><ele>163.0</ele><time>2026-04-06T11:54:56Z</time></trkpt><trkpt lat="46.21981006022944" lon="13.083785728999057"><ele>163.0</ele><time>2026-04-06T11:54:57Z</time></trkpt><trkpt lat="46.219932526936404" lon="13.083844544766844"><ele>163.0</ele><time>2026-04-06T11:54:58Z</time></trkpt><trkpt lat="46.22005619932991" lon="13.083902312216189"><ele>163.0</ele><time>2026-04-06T11:54:59Z</time></trkpt><trkpt lat="46.22017365796437" lon="13.083966273403737"><ele>163.0</ele><time>2026-04-06T11:55:00Z</time></trkpt><trkpt lat="46.22028582720384" lon="13.084034718324157"><ele>163.2</ele><time>2026-04-06T11:55:01Z</time></trkpt><trkpt lat="46.220391719154996" lon="13.084098283566465"><ele>163.4</ele><time>2026-04-06T11:55:02Z</time></trkpt><trkpt lat="46.22050175236755" lon="13.084153532053653"><ele>163.6</ele><time>2026-04-06T11:55:03Z</time></trkpt><trkpt lat="46.220605574737824" lon="13.084207009049075"><ele>163.79999999999998</ele><time>2026-04-06T11:55:04Z</time></trkpt><trkpt lat="46.220702237593656" lon="13.08425886794796"><ele>164.0</ele><time>2026-04-06T11:55:05Z</time></trkpt><trkpt lat="46.22079552649222" lon="13.084306348688596"><ele>164.0</ele><time>2026-04-06T11:55:06Z</time></trkpt><trkpt lat="46.2208922041658" lon="13.084356265354488"><ele>164.0</ele><time>2026-04-06T11:55:07Z</time></trkpt><trkpt lat="46.22100663435058" lon="13.084407684784674"><ele>164.0</ele><time>2026-04-06T11:55:08Z</time></trkpt><trkpt lat="46.2211354218419" lon="13.084472423285447"><ele>164.0</ele><time>2026-04-06T11:55:09Z</time></trkpt><trkpt lat="46.22127619349818" lon="13.084543679348396"><ele>164.0</ele><time>2026-04-06T11:55:10Z</time></trkpt><trkpt lat="46.22142783076295" lon="13.084614050966925"><ele>164.0</ele><time>2026-04-06T11:55:11Z</time></trkpt><trkpt lat="46.2215736494853" lon="13.084677172536056"><ele>164.0</ele><time>2026-04-06T11:55:12Z</time></trkpt><trkpt lat="46.22170442433625" lon="13.084735965145198"><ele>164.0</ele><time>2026-04-06T11:55:13Z</time></trkpt><trkpt lat="46.22182503097634" lon="13.084789297572415"><ele>164.0</ele><time>2026-04-06T11:55:14Z</time></trkpt><trkpt lat="46.221939189425896" lon="13.084840238759709"><ele>164.0</ele><time>2026-04-06T11:55:15Z</time></trkpt><trkpt lat="46.22204509866271" lon="13.084888993665798"><ele>164.0</ele><time>2026-04-06T11:55:16Z</time></trkpt><trkpt lat="46.22214177443884" lon="13.084934795179011"><ele>164.0</ele><time>2026-04-06T11:55:17Z</time></trkpt><trkpt lat="46.22223687181636" lon="13.084980797796257"><ele>164.0</ele><time>2026-04-06T11:55:18Z</time></trkpt><trkpt lat="46.22232128702813" lon="13.085024539988327"><ele>164.0</ele><time>2026-04-06T11:55:19Z</time></trkpt><trkpt lat="46.22238365227969" lon="13.085052702439723"><ele>164.0</ele><time>2026-04-06T11:55:20Z</time></trkpt><trkpt lat="46.22247835051652" lon="13.08509868330335"><ele>164.0</ele><time>2026-04-06T11:55:22Z</time></trkpt><trkpt lat="46.22254694420265" lon="13.084853798488375"><ele>164.0</ele><time>2026-04-06T11:55:24Z</time></trkpt><trkpt lat="46.22255599554152" lon="13.084736496363233"><ele>164.0</ele><time>2026-04-06T11:55:25Z</time></trkpt><trkpt lat="46.22257186523834" lon="13.084608389907064"><ele>164.0</ele><time>2026-04-06T11:55:26Z</time></trkpt><trkpt lat="46.22260132607908" lon="13.084474768631042"><ele>164.0</ele><time>2026-04-06T11:55:27Z</time></trkpt><trkpt lat="46.22264033207888" lon="13.084333575695812"><ele>164.0</ele><time>2026-04-06T11:55:28Z</time></trkpt><trkpt lat="46.22267435751028" lon="13.084180059289404"><ele>164.0</ele><time>2026-04-06T11:55:29Z</time></trkpt><trkpt lat="46.22270736338411" lon="13.084012992188136"><ele>164.0</ele><time>2026-04-06T11:55:30Z</time></trkpt><trkpt lat="46.222748572888214" lon="13.083832442410486"><ele>164.0</ele><time>2026-04-06T11:55:31Z</time></trkpt><trkpt lat="46.2227937455579" lon="13.083630284529933"><ele>164.0</ele><time>2026-04-06T11:55:32Z</time></trkpt><trkpt lat="46.22284158535567" lon="13.083407516990956"><ele>164.0</ele><time>2026-04-06T11:55:33Z</time></trkpt><trkpt lat="46.22288793641525" lon="13.083201568600591"><ele>164.66666666666666</ele><time>2026-04-06T11:55:34Z</time></trkpt><trkpt lat="46.22293488912139" lon="13.082998915000898"><ele>165.33333333333334</ele><time>2026-04-06T11:55:35Z</time></trkpt><trkpt lat="46.22298174841928" lon="13.082777644813621"><ele>166.0</ele><time>2026-04-06T11:55:36Z</time></trkpt><trkpt lat="46.223033618700256" lon="13.082541657306841"><ele>166.33333333333334</ele><time>2026-04-06T11:55:37Z</time></trkpt><trkpt lat="46.22309324794184" lon="13.082290115108343"><ele>166.66666666666666</ele><time>2026-04-06T11:55:38Z</time></trkpt><trkpt lat="46.22315010251989" lon="13.082033338372678"><ele>167.0</ele><time>2026-04-06T11:55:39Z</time></trkpt><trkpt lat="46.2232050827949" lon="13.081776118067472"><ele>166.0</ele><time>2026-04-06T11:55:40Z</time></trkpt><trkpt lat="46.22325575821671" lon="13.08153857894775"><ele>165.0</ele><time>2026-04-06T11:55:41Z</time></trkpt><trkpt lat="46.22330687144272" lon="13.081302545250107"><ele>164.0</ele><time>2026-04-06T11:55:42Z</time></trkpt><trkpt lat="46.22336391040021" lon="13.081050931949354"><ele>164.0</ele><time>2026-04-06T11:55:43Z</time></trkpt><trkpt lat="46.22341994530831" lon="13.080790830003227"><ele>164.0</ele><time>2026-04-06T11:55:44Z</time></trkpt><trkpt lat="46.223473572561055" lon="13.080544533826142"><ele>164.0</ele><time>2026-04-06T11:55:45Z</time></trkpt><trkpt lat="46.223522745371284" lon="13.080315276490587"><ele>164.0</ele><time>2026-04-06T11:55:46Z</time></trkpt><trkpt lat="46.223570699516976" lon="13.080101442295241"><ele>164.0</ele><time>2026-04-06T11:55:47Z</time></trkpt><trkpt lat="46.22361762356799" lon="13.079894698654087"><ele>164.0</ele><time>2026-04-06T11:55:48Z</time></trkpt><trkpt lat="46.2236636791708" lon="13.079684387330357"><ele>164.0</ele><time>2026-04-06T11:55:49Z</time></trkpt><trkpt lat="46.223708641393515" lon="13.079459054527247"><ele>164.0</ele><time>2026-04-06T11:55:50Z</time></trkpt><trkpt lat="46.22375576676537" lon="13.07922416884774"><ele>164.0</ele><time>2026-04-06T11:55:51Z</time></trkpt><trkpt lat="46.22380538298709" lon="13.07897498130039"><ele>164.33333333333331</ele><time>2026-04-06T11:55:52Z</time></trkpt><trkpt lat="46.22385602315273" lon="13.078711376646218"><ele>164.66666666666666</ele><time>2026-04-06T11:55:53Z</time></trkpt><trkpt lat="46.22389832220999" lon="13.07843999797243"><ele>165.0</ele><time>2026-04-06T11:55:54Z</time></trkpt><trkpt lat="46.22394406583119" lon="13.078159514140104"><ele>164.33333333333334</ele><time>2026-04-06T11:55:55Z</time></trkpt><trkpt lat="46.223994748254675" lon="13.077870828480524"><ele>163.66666666666669</ele><time>2026-04-06T11:55:56Z</time></trkpt><trkpt lat="46.22404342873154" lon="13.077592804515282"><ele>163.0</ele><time>2026-04-06T11:55:57Z</time></trkpt><trkpt lat="46.22408701183426" lon="13.077337197963992"><ele>163.0</ele><time>2026-04-06T11:55:58Z</time></trkpt><trkpt lat="46.22412643867367" lon="13.077095722735503"><ele>163.0</ele><time>2026-04-06T11:55:59Z</time></trkpt><trkpt lat="46.2241629394502" lon="13.076870542547669"><ele>163.0</ele><time>2026-04-06T11:56:00Z</time></trkpt><trkpt lat="46.22419968534706" lon="13.076652838256617"><ele>164.0</ele><time>2026-04-06T11:56:01Z</time></trkpt><trkpt lat="46.22423472441281" lon="13.07644470991382"><ele>165.0</ele><time>2026-04-06T11:56:02Z</time></trkpt><trkpt lat="46.22427121174491" lon="13.076235478746003"><ele>166.0</ele><time>2026-04-06T11:56:03Z</time></trkpt><trkpt lat="46.224308475343754" lon="13.076021200871295"><ele>166.0</ele><time>2026-04-06T11:56:04Z</time></trkpt><trkpt lat="46.22434848036113" lon="13.075804412214465"><ele>166.0</ele><time>2026-04-06T11:56:05Z</time></trkpt><trkpt lat="46.22438284206869" lon="13.075586900113747"><ele>166.0</ele><time>2026-04-06T11:56:06Z</time></trkpt><trkpt lat="46.22441726678374" lon="13.075361458683226"><ele>166.0</ele><time>2026-04-06T11:56:07Z</time></trkpt><trkpt lat="46.22446180437841" lon="13.075124302346866"><ele>166.0</ele><time>2026-04-06T11:56:08Z</time></trkpt><trkpt lat="46.2245228582718" lon="13.07487821552443"><ele>166.0</ele><time>2026-04-06T11:56:09Z</time></trkpt><trkpt lat="46.22460163055813" lon="13.074624902104487"><ele>166.33333333333334</ele><time>2026-04-06T11:56:10Z</time></trkpt><trkpt lat="46.22469349169503" lon="13.07436503406326"><ele>166.66666666666666</ele><time>2026-04-06T11:56:11Z</time></trkpt><trkpt lat="46.22479136706402" lon="13.074102594194457"><ele>167.0</ele><time>2026-04-06T11:56:12Z</time></trkpt><trkpt lat="46.2248886333169" lon="13.073836537312964"><ele>166.0</ele><time>2026-04-06T11:56:13Z</time></trkpt><trkpt lat="46.22497480651116" lon="13.073588004502408"><ele>165.0</ele><time>2026-04-06T11:56:14Z</time></trkpt><trkpt lat="46.22505399185981" lon="13.073358285423142"><ele>164.0</ele><time>2026-04-06T11:56:15Z</time></trkpt><trkpt lat="46.22513421597692" lon="13.073136814067794"><ele>163.66666666666666</ele><time>2026-04-06T11:56:16Z</time></trkpt><trkpt lat="46.225214702156805" lon="13.072915438734588"><ele>163.33333333333334</ele><time>2026-04-06T11:56:17Z</time></trkpt><trkpt lat="46.22529469229259" lon="13.072683214130976"><ele>163.0</ele><time>2026-04-06T11:56:18Z</time></trkpt><trkpt lat="46.22537170788163" lon="13.072457973880674"><ele>162.33333333333334</ele><time>2026-04-06T11:56:19Z</time></trkpt><trkpt lat="46.22544329228224" lon="13.072244823117078"><ele>161.66666666666666</ele><time>2026-04-06T11:56:20Z</time></trkpt><trkpt lat="46.22551012023" lon="13.072048007168162"><ele>161.0</ele><time>2026-04-06T11:56:21Z</time></trkpt><trkpt lat="46.22557424645218" lon="13.071869667907748"><ele>161.0</ele><time>2026-04-06T11:56:22Z</time></trkpt><trkpt lat="46.225639497690686" lon="13.071706542511782"><ele>161.0</ele><time>2026-04-06T11:56:23Z</time></trkpt><trkpt lat="46.22572550950639" lon="13.071551863765627"><ele>161.0</ele><time>2026-04-06T11:56:24Z</time></trkpt><trkpt lat="46.22583266408078" lon="13.071400660202395"><ele>161.0</ele><time>2026-04-06T11:56:25Z</time></trkpt><trkpt lat="46.225951727200446" lon="13.071283159826095"><ele>161.5</ele><time>2026-04-06T11:56:26Z</time></trkpt><trkpt lat="46.22607483136255" lon="13.071194359305482"><ele>162.0</ele><time>2026-04-06T11:56:27Z</time></trkpt><trkpt lat="46.226197840809036" lon="13.071127010320552"><ele>162.5</ele><time>2026-04-06T11:56:28Z</time></trkpt><trkpt lat="46.226319884780565" lon="13.07108398774762"><ele>163.0</ele><time>2026-04-06T11:56:29Z</time></trkpt><trkpt lat="46.226447814699064" lon="13.07106591326779"><ele>163.2</ele><time>2026-04-06T11:56:30Z</time></trkpt><trkpt lat="46.2265696335156" lon="13.071073774564015"><ele>163.4</ele><time>2026-04-06T11:56:31Z</time></trkpt><trkpt lat="46.22667578368249" lon="13.07110490570257"><ele>163.6</ele><time>2026-04-06T11:56:32Z</time></trkpt><trkpt lat="46.2267561627746" lon="13.071134298758265"><ele>163.79999999999998</ele><time>2026-04-06T11:56:33Z</time></trkpt><trkpt lat="46.226863423408645" lon="13.071169681148964"><ele>164.0</ele><time>2026-04-06T11:56:35Z</time></trkpt><trkpt lat="46.22695165836859" lon="13.071220308019244"><ele>164.0</ele><time>2026-04-06T11:56:37Z</time></trkpt><trkpt lat="46.22701951057626" lon="13.07125616800786"><ele>164.0</ele><time>2026-04-06T11:56:39Z</time></trkpt><trkpt lat="46.227158978410415" lon="13.071061749038579"><ele>164.0</ele><time>2026-04-06T11:56:41Z</time></trkpt><trkpt lat="46.22724377366102" lon="13.071087870573768"><ele>164.0</ele><time>2026-04-06T11:56:42Z</time></trkpt><trkpt lat="46.22735254736897" lon="13.071164503841025"><ele>164.66666666666666</ele><time>2026-04-06T11:56:43Z</time></trkpt><trkpt lat="46.227491910106934" lon="13.071242089702679"><ele>165.33333333333334</ele><time>2026-04-06T11:56:44Z</time></trkpt><trkpt lat="46.22766833742208" lon="13.071322588974743"><ele>166.0</ele><time>2026-04-06T11:56:45Z</time></trkpt><trkpt lat="46.22787268172759" lon="13.071422807938204"><ele>166.0</ele><time>2026-04-06T11:56:46Z</time></trkpt><trkpt lat="46.228116212300804" lon="13.071545471471454"><ele>166.0</ele><time>2026-04-06T11:56:47Z</time></trkpt><trkpt lat="46.22838850892384" lon="13.071679478647809"><ele>166.5</ele><time>2026-04-06T11:56:48Z</time></trkpt><trkpt lat="46.22864901422979" lon="13.071806568941192"><ele>167.0</ele><time>2026-04-06T11:56:49Z</time></trkpt><trkpt lat="46.22887904718013" lon="13.07192432201253"><ele>166.33333333333331</ele><time>2026-04-06T11:56:50Z</time></trkpt><trkpt lat="46.22908684529519" lon="13.07203520451162"><ele>165.66666666666666</ele><time>2026-04-06T11:56:51Z</time></trkpt><trkpt lat="46.22928889240273" lon="13.072135559775115"><ele>165.0</ele><time>2026-04-06T11:56:52Z</time></trkpt><trkpt lat="46.22947920201526" lon="13.072223153089263"><ele>165.0</ele><time>2026-04-06T11:56:53Z</time></trkpt><trkpt lat="46.229659528275626" lon="13.072308723935626"><ele>165.0</ele><time>2026-04-06T11:56:54Z</time></trkpt><trkpt lat="46.2298235580722" lon="13.072395409557608"><ele>165.0</ele><time>2026-04-06T11:56:55Z</time></trkpt><trkpt lat="46.230009771653535" lon="13.072488558875978"><ele>165.0</ele><time>2026-04-06T11:56:56Z</time></trkpt><trkpt lat="46.23020216372718" lon="13.072584327913946"><ele>165.0</ele><time>2026-04-06T11:56:57Z</time></trkpt><trkpt lat="46.23038785439176" lon="13.072676729362145"><ele>165.0</ele><time>2026-04-06T11:56:58Z</time></trkpt><trkpt lat="46.230560498267366" lon="13.072761342507738"><ele>164.66666666666666</ele><time>2026-04-06T11:56:59Z</time></trkpt><trkpt lat="46.230721338343166" lon="13.072840542700657"><ele>164.33333333333331</ele><time>2026-04-06T11:57:00Z</time></trkpt><trkpt lat="46.230873858908595" lon="13.072918606790033"><ele>164.0</ele><time>2026-04-06T11:57:01Z</time></trkpt><trkpt lat="46.23102890126248" lon="13.072995152919926"><ele>164.0</ele><time>2026-04-06T11:57:02Z</time></trkpt><trkpt lat="46.2312015543215" lon="13.0730754914264"><ele>164.0</ele><time>2026-04-06T11:57:03Z</time></trkpt><trkpt lat="46.2313852713664" lon="13.073163620059587"><ele>164.0</ele><time>2026-04-06T11:57:04Z</time></trkpt><trkpt lat="46.23157411352292" lon="13.07325548208343"><ele>164.66666666666666</ele><time>2026-04-06T11:57:05Z</time></trkpt><trkpt lat="46.231763637061135" lon="13.073350061737944"><ele>165.33333333333334</ele><time>2026-04-06T11:57:06Z</time></trkpt><trkpt lat="46.23193940093988" lon="13.073439574848956"><ele>166.0</ele><time>2026-04-06T11:57:07Z</time></trkpt><trkpt lat="46.23210482170434" lon="13.07351848072207"><ele>166.0</ele><time>2026-04-06T11:57:08Z</time></trkpt><trkpt lat="46.23226385468701" lon="13.073599157642416"><ele>166.0</ele><time>2026-04-06T11:57:09Z</time></trkpt><trkpt lat="46.232431400474134" lon="13.0736846093104"><ele>166.0</ele><time>2026-04-06T11:57:10Z</time></trkpt><trkpt lat="46.23260227249554" lon="13.073770968036023"><ele>165.66666666666669</ele><time>2026-04-06T11:57:11Z</time></trkpt><trkpt lat="46.23277348994373" lon="13.073861125702729"><ele>165.33333333333334</ele><time>2026-04-06T11:57:12Z</time></trkpt><trkpt lat="46.23294428443625" lon="13.07395102152538"><ele>165.0</ele><time>2026-04-06T11:57:13Z</time></trkpt><trkpt lat="46.233106988194606" lon="13.074036017687842"><ele>164.33333333333334</ele><time>2026-04-06T11:57:14Z</time></trkpt><trkpt lat="46.23326587014057" lon="13.074114560625633"><ele>163.66666666666669</ele><time>2026-04-06T11:57:15Z</time></trkpt><trkpt lat="46.23341848781625" lon="13.07418871862744"><ele>163.0</ele><time>2026-04-06T11:57:16Z</time></trkpt><trkpt lat="46.2335773800693" lon="13.074270073032622"><ele>163.0</ele><time>2026-04-06T11:57:17Z</time></trkpt><trkpt lat="46.23374872253006" lon="13.074356088667443"><ele>163.0</ele><time>2026-04-06T11:57:18Z</time></trkpt><trkpt lat="46.23392446006465" lon="13.0744444093952"><ele>163.0</ele><time>2026-04-06T11:57:19Z</time></trkpt><trkpt lat="46.234096443386285" lon="13.074530753344714"><ele>163.66666666666669</ele><time>2026-04-06T11:57:20Z</time></trkpt><trkpt lat="46.23426337706659" lon="13.07461525469335"><ele>164.33333333333334</ele><time>2026-04-06T11:57:21Z</time></trkpt><trkpt lat="46.234424191167506" lon="13.074694857271544"><ele>165.0</ele><time>2026-04-06T11:57:22Z</time></trkpt><trkpt lat="46.23457546836411" lon="13.074769446743705"><ele>165.0</ele><time>2026-04-06T11:57:23Z</time></trkpt><trkpt lat="46.23471622921151" lon="13.074843368956662"><ele>165.0</ele><time>2026-04-06T11:57:24Z</time></trkpt><trkpt lat="46.23485379788419" lon="13.074911893697221"><ele>165.0</ele><time>2026-04-06T11:57:25Z</time></trkpt><trkpt lat="46.23498149473283" lon="13.074976752901733"><ele>165.0</ele><time>2026-04-06T11:57:26Z</time></trkpt><trkpt lat="46.235103652130626" lon="13.075044180178395"><ele>165.75</ele><time>2026-04-06T11:57:27Z</time></trkpt><trkpt lat="46.23524007883943" lon="13.07511222220675"><ele>166.5</ele><time>2026-04-06T11:57:28Z</time></trkpt><trkpt lat="46.235377714331044" lon="13.075181305601255"><ele>167.25</ele><time>2026-04-06T11:57:29Z</time></trkpt><trkpt lat="46.23550664220227" lon="13.075247033225171"><ele>168.0</ele><time>2026-04-06T11:57:30Z</time></trkpt><trkpt lat="46.23563526500105" lon="13.075308743951433"><ele>168.66666666666666</ele><time>2026-04-06T11:57:31Z</time></trkpt><trkpt lat="46.23578611543561" lon="13.07537887852046"><ele>169.33333333333331</ele><time>2026-04-06T11:57:32Z</time></trkpt><trkpt lat="46.23594469880238" lon="13.075457226987231"><ele>170.0</ele><time>2026-04-06T11:57:33Z</time></trkpt><trkpt lat="46.23608977127899" lon="13.075529278722001"><ele>170.0</ele><time>2026-04-06T11:57:34Z</time></trkpt><trkpt lat="46.23622864724696" lon="13.075598158399355"><ele>170.0</ele><time>2026-04-06T11:57:35Z</time></trkpt><trkpt lat="46.23635932946231" lon="13.075666306951033"><ele>170.0</ele><time>2026-04-06T11:57:36Z</time></trkpt><trkpt lat="46.236493433992216" lon="13.075734513290511"><ele>170.0</ele><time>2026-04-06T11:57:37Z</time></trkpt><trkpt lat="46.23664256899766" lon="13.075811912236901"><ele>170.0</ele><time>2026-04-06T11:57:38Z</time></trkpt><trkpt lat="46.23680617921904" lon="13.075892895331554"><ele>170.0</ele><time>2026-04-06T11:57:39Z</time></trkpt><trkpt lat="46.23698009498984" lon="13.075977991330829"><ele>170.0</ele><time>2026-04-06T11:57:40Z</time></trkpt><trkpt lat="46.23716332304186" lon="13.076067974262754"><ele>170.33333333333331</ele><time>2026-04-06T11:57:41Z</time></trkpt><trkpt lat="46.237352944504195" lon="13.076162036715688"><ele>170.66666666666666</ele><time>2026-04-06T11:57:42Z</time></trkpt><trkpt lat="46.237529518385166" lon="13.076253447326126"><ele>171.0</ele><time>2026-04-06T11:57:43Z</time></trkpt><trkpt lat="46.23770566657897" lon="13.076341192955423"><ele>171.0</ele><time>2026-04-06T11:57:44Z</time></trkpt><trkpt lat="46.23789343050853" lon="13.07643326649453"><ele>171.0</ele><time>2026-04-06T11:57:45Z</time></trkpt><trkpt lat="46.23808828591316" lon="13.076530259136154"><ele>171.0</ele><time>2026-04-06T11:57:46Z</time></trkpt><trkpt lat="46.23829018991241" lon="13.076631098228845"><ele>172.0</ele><time>2026-04-06T11:57:47Z</time></trkpt><trkpt lat="46.23849806831061" lon="13.076734320726985"><ele>173.0</ele><time>2026-04-06T11:57:48Z</time></trkpt><trkpt lat="46.23871539605082" lon="13.076840952354164"><ele>174.0</ele><time>2026-04-06T11:57:49Z</time></trkpt><trkpt lat="46.23893531099072" lon="13.076951668338596"><ele>174.33333333333334</ele><time>2026-04-06T11:57:50Z</time></trkpt><trkpt lat="46.23914991199505" lon="13.077059551322781"><ele>174.66666666666669</ele><time>2026-04-06T11:57:51Z</time></trkpt><trkpt lat="46.23935186260284" lon="13.07716247886976"><ele>175.0</ele><time>2026-04-06T11:57:52Z</time></trkpt><trkpt lat="46.239542894910194" lon="13.077260716472223"><ele>175.0</ele><time>2026-04-06T11:57:53Z</time></trkpt><trkpt lat="46.239739872112004" lon="13.077359296112025"><ele>175.0</ele><time>2026-04-06T11:57:54Z</time></trkpt><trkpt lat="46.2399461762406" lon="13.077460774671808"><ele>175.0</ele><time>2026-04-06T11:57:55Z</time></trkpt><trkpt lat="46.240161503635335" lon="13.077567495070872"><ele>174.0</ele><time>2026-04-06T11:57:56Z</time></trkpt><trkpt lat="46.240384816895734" lon="13.077678648116063"><ele>173.0</ele><time>2026-04-06T11:57:57Z</time></trkpt><trkpt lat="46.24061696021329" lon="13.077793490583058"><ele>173.0</ele><time>2026-04-06T11:57:58Z</time></trkpt><trkpt lat="46.24085289341885" lon="13.077911687058918"><ele>173.0</ele><time>2026-04-06T11:57:59Z</time></trkpt><trkpt lat="46.24108497045491" lon="13.078025791445947"><ele>173.0</ele><time>2026-04-06T11:58:00Z</time></trkpt><trkpt lat="46.24130128644248" lon="13.078134272448008"><ele>173.0</ele><time>2026-04-06T11:58:01Z</time></trkpt><trkpt lat="46.24150639977988" lon="13.078238687135881"><ele>173.0</ele><time>2026-04-06T11:58:02Z</time></trkpt><trkpt lat="46.241701502931804" lon="13.078337636838759"><ele>173.66666666666666</ele><time>2026-04-06T11:58:03Z</time></trkpt><trkpt lat="46.24189029357903" lon="13.078432863112253"><ele>174.33333333333334</ele><time>2026-04-06T11:58:04Z</time></trkpt><trkpt lat="46.24208611781413" lon="13.07852909352926"><ele>175.0</ele><time>2026-04-06T11:58:05Z</time></trkpt><trkpt lat="46.24227583817676" lon="13.078623798837016"><ele>175.0</ele><time>2026-04-06T11:58:06Z</time></trkpt><trkpt lat="46.24246399968175" lon="13.07871911788246"><ele>175.0</ele><time>2026-04-06T11:58:07Z</time></trkpt><trkpt lat="46.242657385082985" lon="13.078815608744076"><ele>175.0</ele><time>2026-04-06T11:58:08Z</time></trkpt><trkpt lat="46.24283914612391" lon="13.078905860080088"><ele>175.0</ele><time>2026-04-06T11:58:09Z</time></trkpt><trkpt lat="46.243011421368834" lon="13.078989896584888"><ele>175.0</ele><time>2026-04-06T11:58:10Z</time></trkpt><trkpt lat="46.243175456440945" lon="13.079070713961968"><ele>175.0</ele><time>2026-04-06T11:58:11Z</time></trkpt><trkpt lat="46.24333800849142" lon="13.079156220446215"><ele>174.33333333333334</ele><time>2026-04-06T11:58:12Z</time></trkpt><trkpt lat="46.24350748346544" lon="13.079241074345948"><ele>173.66666666666666</ele><time>2026-04-06T11:58:13Z</time></trkpt><trkpt lat="46.24367335697217" lon="13.07931970126526"><ele>173.0</ele><time>2026-04-06T11:58:14Z</time></trkpt><trkpt lat="46.24383125231726" lon="13.079386715977847"><ele>174.0</ele><time>2026-04-06T11:58:15Z</time></trkpt><trkpt lat="46.24398029943235" lon="13.07944131767654"><ele>175.0</ele><time>2026-04-06T11:58:16Z</time></trkpt><trkpt lat="46.24412340122848" lon="13.079490454237293"><ele>176.0</ele><time>2026-04-06T11:58:17Z</time></trkpt><trkpt lat="46.244259196145656" lon="13.079534532013279"><ele>177.0</ele><time>2026-04-06T11:58:18Z</time></trkpt><trkpt lat="46.244392351424565" lon="13.079579052558715"><ele>177.0</ele><time>2026-04-06T11:58:19Z</time></trkpt><trkpt lat="46.24452777848852" lon="13.079623322397422"><ele>177.0</ele><time>2026-04-06T11:58:20Z</time></trkpt><trkpt lat="46.244657642267505" lon="13.079662501784128"><ele>177.0</ele><time>2026-04-06T11:58:21Z</time></trkpt><trkpt lat="46.24478927258844" lon="13.079678411423606"><ele>177.0</ele><time>2026-04-06T11:58:22Z</time></trkpt><trkpt lat="46.244907254358765" lon="13.07968744140886"><ele>176.5</ele><time>2026-04-06T11:58:23Z</time></trkpt><trkpt lat="46.24504320279604" lon="13.079613390126962"><ele>176.0</ele><time>2026-04-06T11:58:24Z</time></trkpt><trkpt lat="46.245175763083516" lon="13.079485955029277"><ele>175.5</ele><time>2026-04-06T11:58:25Z</time></trkpt><trkpt lat="46.24528174006691" lon="13.079353759277334"><ele>175.0</ele><time>2026-04-06T11:58:26Z</time></trkpt><trkpt lat="46.24537993319111" lon="13.079229027096112"><ele>175.0</ele><time>2026-04-06T11:58:27Z</time></trkpt><trkpt lat="46.24546511477893" lon="13.079113022187906"><ele>175.0</ele><time>2026-04-06T11:58:28Z</time></trkpt><trkpt lat="46.2455568513084" lon="13.079001207089826"><ele>175.0</ele><time>2026-04-06T11:58:29Z</time></trkpt><trkpt lat="46.245662449829666" lon="13.078881871730577"><ele>175.0</ele><time>2026-04-06T11:58:30Z</time></trkpt><trkpt lat="46.245774464268415" lon="13.07877573202006"><ele>176.25</ele><time>2026-04-06T11:58:31Z</time></trkpt><trkpt lat="46.24588884348138" lon="13.078697584154144"><ele>177.5</ele><time>2026-04-06T11:58:32Z</time></trkpt><trkpt lat="46.24601551467537" lon="13.078634837581472"><ele>178.75</ele><time>2026-04-06T11:58:33Z</time></trkpt><trkpt lat="46.246155907291474" lon="13.078584186138594"><ele>180.0</ele><time>2026-04-06T11:58:34Z</time></trkpt><trkpt lat="46.246308220734534" lon="13.078556233454936"><ele>180.0</ele><time>2026-04-06T11:58:35Z</time></trkpt><trkpt lat="46.2464602242921" lon="13.078585079975017"><ele>180.0</ele><time>2026-04-06T11:58:36Z</time></trkpt><trkpt lat="46.24661728095202" lon="13.078607286932396"><ele>180.0</ele><time>2026-04-06T11:58:37Z</time></trkpt><trkpt lat="46.246781371435375" lon="13.078630523993539"><ele>179.0</ele><time>2026-04-06T11:58:38Z</time></trkpt><trkpt lat="46.246944215544616" lon="13.078681161145784"><ele>178.0</ele><time>2026-04-06T11:58:39Z</time></trkpt><trkpt lat="46.24710067146659" lon="13.07872188799023"><ele>177.0</ele><time>2026-04-06T11:58:40Z</time></trkpt><trkpt lat="46.247246350624756" lon="13.07875755281611"><ele>176.33333333333334</ele><time>2026-04-06T11:58:41Z</time></trkpt><trkpt lat="46.24739027015022" lon="13.0787916895292"><ele>175.66666666666669</ele><time>2026-04-06T11:58:42Z</time></trkpt><trkpt lat="46.24754435591644" lon="13.078829723448193"><ele>175.0</ele><time>2026-04-06T11:58:43Z</time></trkpt><trkpt lat="46.247707374420244" lon="13.078870731657137"><ele>175.0</ele><time>2026-04-06T11:58:44Z</time></trkpt><trkpt lat="46.247871554306904" lon="13.078908529854427"><ele>175.0</ele><time>2026-04-06T11:58:45Z</time></trkpt><trkpt lat="46.24803553750857" lon="13.078953290291693"><ele>175.0</ele><time>2026-04-06T11:58:46Z</time></trkpt><trkpt lat="46.24820075112678" lon="13.07899550649584"><ele>175.25</ele><time>2026-04-06T11:58:47Z</time></trkpt><trkpt lat="46.248355500757384" lon="13.079037109752386"><ele>175.5</ele><time>2026-04-06T11:58:48Z</time></trkpt><trkpt lat="46.24850063758556" lon="13.07907833172189"><ele>175.75</ele><time>2026-04-06T11:58:49Z</time></trkpt><trkpt lat="46.24864035881217" lon="13.079112736490217"><ele>176.0</ele><time>2026-04-06T11:58:50Z</time></trkpt><trkpt lat="46.24878646682121" lon="13.079151968582924"><ele>176.0</ele><time>2026-04-06T11:58:51Z</time></trkpt><trkpt lat="46.24894066501765" lon="13.079185078048944"><ele>176.0</ele><time>2026-04-06T11:58:52Z</time></trkpt><trkpt lat="46.249099716769926" lon="13.079224625672003"><ele>176.0</ele><time>2026-04-06T11:58:53Z</time></trkpt><trkpt lat="46.249264296172996" lon="13.079268278171371"><ele>176.0</ele><time>2026-04-06T11:58:54Z</time></trkpt><trkpt lat="46.24941895449653" lon="13.079305761281733"><ele>176.0</ele><time>2026-04-06T11:58:55Z</time></trkpt><trkpt lat="46.249558369807154" lon="13.079341609452594"><ele>176.0</ele><time>2026-04-06T11:58:56Z</time></trkpt><trkpt lat="46.249680687060774" lon="13.07937154970775"><ele>176.0</ele><time>2026-04-06T11:58:57Z</time></trkpt><trkpt lat="46.249796938671096" lon="13.079399787295285"><ele>176.75</ele><time>2026-04-06T11:58:58Z</time></trkpt><trkpt lat="46.24992812147316" lon="13.079430754770485"><ele>177.5</ele><time>2026-04-06T11:58:59Z</time></trkpt><trkpt lat="46.25007134778347" lon="13.07946608231762"><ele>178.25</ele><time>2026-04-06T11:59:00Z</time></trkpt><trkpt lat="46.25021499573134" lon="13.079501834179615"><ele>179.0</ele><time>2026-04-06T11:59:01Z</time></trkpt><trkpt lat="46.25036211704579" lon="13.079536297400503"><ele>179.0</ele><time>2026-04-06T11:59:02Z</time></trkpt><trkpt lat="46.250499139046475" lon="13.079570077370704"><ele>179.0</ele><time>2026-04-06T11:59:03Z</time></trkpt><trkpt lat="46.25062924247946" lon="13.079601282348586"><ele>179.0</ele><time>2026-04-06T11:59:04Z</time></trkpt><trkpt lat="46.250760726204106" lon="13.0796379860555"><ele>179.0</ele><time>2026-04-06T11:59:05Z</time></trkpt><trkpt lat="46.25089264689397" lon="13.079675266214345"><ele>179.25</ele><time>2026-04-06T11:59:06Z</time></trkpt><trkpt lat="46.251032691141596" lon="13.07970948750979"><ele>179.5</ele><time>2026-04-06T11:59:07Z</time></trkpt><trkpt lat="46.251179798595935" lon="13.079744977179516"><ele>179.75</ele><time>2026-04-06T11:59:08Z</time></trkpt><trkpt lat="46.25132670898992" lon="13.079781005482957"><ele>180.0</ele><time>2026-04-06T11:59:09Z</time></trkpt><trkpt lat="46.25146233405193" lon="13.079817131208355"><ele>180.0</ele><time>2026-04-06T11:59:10Z</time></trkpt><trkpt lat="46.251590072791075" lon="13.079843679377896"><ele>180.0</ele><time>2026-04-06T11:59:11Z</time></trkpt><trkpt lat="46.25171752594348" lon="13.079873334712524"><ele>180.0</ele><time>2026-04-06T11:59:12Z</time></trkpt><trkpt lat="46.251853032886444" lon="13.079918940328696"><ele>180.0</ele><time>2026-04-06T11:59:13Z</time></trkpt><trkpt lat="46.251991554850385" lon="13.079975457705455"><ele>180.25</ele><time>2026-04-06T11:59:14Z</time></trkpt><trkpt lat="46.25212792885162" lon="13.080043552195612"><ele>180.5</ele><time>2026-04-06T11:59:15Z</time></trkpt><trkpt lat="46.25225134950473" lon="13.080128236267223"><ele>180.75</ele><time>2026-04-06T11:59:16Z</time></trkpt><trkpt lat="46.25237006826099" lon="13.080225546101977"><ele>181.0</ele><time>2026-04-06T11:59:17Z</time></trkpt><trkpt lat="46.252486870988605" lon="13.080317136638941"><ele>181.25</ele><time>2026-04-06T11:59:18Z</time></trkpt><trkpt lat="46.25259782493249" lon="13.080400340206793"><ele>181.5</ele><time>2026-04-06T11:59:19Z</time></trkpt><trkpt lat="46.25270332386007" lon="13.08048079841539"><ele>181.75</ele><time>2026-04-06T11:59:20Z</time></trkpt><trkpt lat="46.2528030976328" lon="13.08055380573394"><ele>182.0</ele><time>2026-04-06T11:59:21Z</time></trkpt><trkpt lat="46.25290585392489" lon="13.08063245072946"><ele>182.0</ele><time>2026-04-06T11:59:22Z</time></trkpt><trkpt lat="46.25301802728273" lon="13.080719447104991"><ele>182.0</ele><time>2026-04-06T11:59:23Z</time></trkpt><trkpt lat="46.25313543801627" lon="13.08080653230667"><ele>182.0</ele><time>2026-04-06T11:59:24Z</time></trkpt><trkpt lat="46.25325388855182" lon="13.080886865674348"><ele>182.0</ele><time>2026-04-06T11:59:25Z</time></trkpt><trkpt lat="46.253355178157655" lon="13.080967113377248"><ele>182.5</ele><time>2026-04-06T11:59:26Z</time></trkpt><trkpt lat="46.25345560370619" lon="13.081049151166665"><ele>183.0</ele><time>2026-04-06T11:59:27Z</time></trkpt><trkpt lat="46.25355710957143" lon="13.081126022268577"><ele>183.5</ele><time>2026-04-06T11:59:28Z</time></trkpt><trkpt lat="46.25366340902614" lon="13.0812044651434"><ele>184.0</ele><time>2026-04-06T11:59:29Z</time></trkpt><trkpt lat="46.253774886142516" lon="13.081288464328814"><ele>184.0</ele><time>2026-04-06T11:59:30Z</time></trkpt><trkpt lat="46.25389318475249" lon="13.081373928691075"><ele>184.0</ele><time>2026-04-06T11:59:31Z</time></trkpt><trkpt lat="46.25401227732819" lon="13.08144559362684"><ele>184.0</ele><time>2026-04-06T11:59:32Z</time></trkpt><trkpt lat="46.254128413825086" lon="13.081531529419943"><ele>184.0</ele><time>2026-04-06T11:59:33Z</time></trkpt><trkpt lat="46.25423855125453" lon="13.081620917266495"><ele>183.5</ele><time>2026-04-06T11:59:34Z</time></trkpt><trkpt lat="46.25433861071601" lon="13.08170483231768"><ele>183.0</ele><time>2026-04-06T11:59:35Z</time></trkpt><trkpt lat="46.25444090381732" lon="13.081786818723929"><ele>182.5</ele><time>2026-04-06T11:59:36Z</time></trkpt><trkpt lat="46.254543515211104" lon="13.081867210484562"><ele>182.0</ele><time>2026-04-06T11:59:37Z</time></trkpt><trkpt lat="46.25463751380441" lon="13.081940806296345"><ele>182.0</ele><time>2026-04-06T11:59:38Z</time></trkpt><trkpt lat="46.254727568661366" lon="13.082006764499944"><ele>182.0</ele><time>2026-04-06T11:59:39Z</time></trkpt><trkpt lat="46.254813313943075" lon="13.08207189586006"><ele>182.0</ele><time>2026-04-06T11:59:40Z</time></trkpt><trkpt lat="46.25490597895893" lon="13.082140579363367"><ele>182.0</ele><time>2026-04-06T11:59:41Z</time></trkpt><trkpt lat="46.25500232617444" lon="13.082206447557141"><ele>182.0</ele><time>2026-04-06T11:59:42Z</time></trkpt><trkpt lat="46.25510128327517" lon="13.08228265243714"><ele>182.16666666666666</ele><time>2026-04-06T11:59:43Z</time></trkpt><trkpt lat="46.25519384650889" lon="13.082360111740682"><ele>182.33333333333331</ele><time>2026-04-06T11:59:44Z</time></trkpt><trkpt lat="46.25527616105074" lon="13.082422935693689"><ele>182.5</ele><time>2026-04-06T11:59:45Z</time></trkpt><trkpt lat="46.25535387909765" lon="13.082479156300447"><ele>182.66666666666666</ele><time>2026-04-06T11:59:46Z</time></trkpt><trkpt lat="46.25541976631065" lon="13.082527191962228"><ele>182.83333333333334</ele><time>2026-04-06T11:59:47Z</time></trkpt><trkpt lat="46.255478113426165" lon="13.082567733554868"><ele>183.0</ele><time>2026-04-06T11:59:48Z</time></trkpt><trkpt lat="46.25553546562109" lon="13.082610215670218"><ele>183.2</ele><time>2026-04-06T11:59:49Z</time></trkpt><trkpt lat="46.25559830137745" lon="13.08266613237413"><ele>183.4</ele><time>2026-04-06T11:59:50Z</time></trkpt><trkpt lat="46.2556704085901" lon="13.082739843745898"><ele>183.6</ele><time>2026-04-06T11:59:51Z</time></trkpt><trkpt lat="46.255751605103725" lon="13.082812046412911"><ele>183.79999999999998</ele><time>2026-04-06T11:59:52Z</time></trkpt><trkpt lat="46.25584053102049" lon="13.082898612047503"><ele>184.0</ele><time>2026-04-06T11:59:53Z</time></trkpt><trkpt lat="46.25593244689068" lon="13.083019515720204"><ele>184.0</ele><time>2026-04-06T11:59:54Z</time></trkpt><trkpt lat="46.25602467769042" lon="13.083153684899553"><ele>184.0</ele><time>2026-04-06T11:59:55Z</time></trkpt><trkpt lat="46.25611654794829" lon="13.083291124935336"><ele>184.0</ele><time>2026-04-06T11:59:56Z</time></trkpt><trkpt lat="46.25619930833955" lon="13.083423889248174"><ele>184.0</ele><time>2026-04-06T11:59:57Z</time></trkpt><trkpt lat="46.25627615058683" lon="13.083562514914892"><ele>184.5</ele><time>2026-04-06T11:59:58Z</time></trkpt><trkpt lat="46.25635803348394" lon="13.083716524812525"><ele>185.0</ele><time>2026-04-06T11:59:59Z</time></trkpt><trkpt lat="46.25644241869772" lon="13.083882483926164"><ele>185.5</ele><time>2026-04-06T12:00:00Z</time></trkpt><trkpt lat="46.25652843775191" lon="13.084048546989601"><ele>186.0</ele><time>2026-04-06T12:00:01Z</time></trkpt><trkpt lat="46.256606389087516" lon="13.084195123179272"><ele>186.0</ele><time>2026-04-06T12:00:02Z</time></trkpt><trkpt lat="46.256680780097845" lon="13.084338454767845"><ele>186.0</ele><time>2026-04-06T12:00:03Z</time></trkpt><trkpt lat="46.25675393284407" lon="13.084485696170988"><ele>186.0</ele><time>2026-04-06T12:00:04Z</time></trkpt><trkpt lat="46.25682715940583" lon="13.084630917848353"><ele>186.0</ele><time>2026-04-06T12:00:05Z</time></trkpt><trkpt lat="46.256897284823836" lon="13.084767761534115"><ele>186.0</ele><time>2026-04-06T12:00:06Z</time></trkpt><trkpt lat="46.25696000769122" lon="13.084900491123436"><ele>186.0</ele><time>2026-04-06T12:00:07Z</time></trkpt><trkpt lat="46.25701495481318" lon="13.085018516317712"><ele>186.0</ele><time>2026-04-06T12:00:08Z</time></trkpt><trkpt lat="46.25707633756814" lon="13.08512557474899"><ele>186.0</ele><time>2026-04-06T12:00:09Z</time></trkpt><trkpt lat="46.25713358480469" lon="13.085223751784538"><ele>186.0</ele><time>2026-04-06T12:00:10Z</time></trkpt><trkpt lat="46.2571797805863" lon="13.085302854129854"><ele>185.83333333333334</ele><time>2026-04-06T12:00:11Z</time></trkpt><trkpt lat="46.25722828689565" lon="13.085376113105987"><ele>185.66666666666666</ele><time>2026-04-06T12:00:12Z</time></trkpt><trkpt lat="46.257275376848064" lon="13.085475741154045"><ele>185.5</ele><time>2026-04-06T12:00:13Z</time></trkpt><trkpt lat="46.25732629315453" lon="13.085589976445657"><ele>185.33333333333331</ele><time>2026-04-06T12:00:14Z</time></trkpt><trkpt lat="46.257396098350874" lon="13.085668793565041"><ele>185.16666666666666</ele><time>2026-04-06T12:00:15Z</time></trkpt><trkpt lat="46.257489185110515" lon="13.085704070967424"><ele>185.0</ele><time>2026-04-06T12:00:16Z</time></trkpt><trkpt lat="46.257591515941655" lon="13.085707852573625"><ele>184.75</ele><time>2026-04-06T12:00:17Z</time></trkpt><trkpt lat="46.25767601220676" lon="13.08564385274671"><ele>184.5</ele><time>2026-04-06T12:00:18Z</time></trkpt><trkpt lat="46.257771619592255" lon="13.085812534319668"><ele>184.25</ele><time>2026-04-06T12:00:19Z</time></trkpt><trkpt lat="46.25787858040865" lon="13.085901403339252"><ele>184.0</ele><time>2026-04-06T12:00:20Z</time></trkpt><trkpt lat="46.257978166518626" lon="13.08604680294318"><ele>184.66666666666669</ele><time>2026-04-06T12:00:21Z</time></trkpt><trkpt lat="46.258099274347884" lon="13.086194421959982"><ele>185.33333333333334</ele><time>2026-04-06T12:00:22Z</time></trkpt><trkpt lat="46.25823906571627" lon="13.086348786066813"><ele>186.0</ele><time>2026-04-06T12:00:23Z</time></trkpt><trkpt lat="46.25836779385201" lon="13.086500143296092"><ele>186.25</ele><time>2026-04-06T12:00:24Z</time></trkpt><trkpt lat="46.258485942759876" lon="13.086639571666812"><ele>186.5</ele><time>2026-04-06T12:00:25Z</time></trkpt><trkpt lat="46.258601419525554" lon="13.086768890084013"><ele>186.75</ele><time>2026-04-06T12:00:26Z</time></trkpt><trkpt lat="46.25871675547606" lon="13.086898275668306"><ele>187.0</ele><time>2026-04-06T12:00:27Z</time></trkpt><trkpt lat="46.258828994609445" lon="13.087030947709756"><ele>187.0</ele><time>2026-04-06T12:00:28Z</time></trkpt><trkpt lat="46.25893982664745" lon="13.087165850840403"><ele>187.0</ele><time>2026-04-06T12:00:29Z</time></trkpt><trkpt lat="46.259063284384126" lon="13.087298961809429"><ele>187.0</ele><time>2026-04-06T12:00:30Z</time></trkpt><trkpt lat="46.2591997476136" lon="13.087429717296098"><ele>186.66666666666669</ele><time>2026-04-06T12:00:31Z</time></trkpt><trkpt lat="46.25934631532799" lon="13.087547949941523"><ele>186.33333333333334</ele><time>2026-04-06T12:00:32Z</time></trkpt><trkpt lat="46.25949495828108" lon="13.087646942749664"><ele>186.0</ele><time>2026-04-06T12:00:33Z</time></trkpt><trkpt lat="46.25964765231176" lon="13.087730979288514"><ele>186.33333333333334</ele><time>2026-04-06T12:00:34Z</time></trkpt><trkpt lat="46.25981621184549" lon="13.087804892454788"><ele>186.66666666666669</ele><time>2026-04-06T12:00:35Z</time></trkpt><trkpt lat="46.2599952753929" lon="13.087869773900131"><ele>187.0</ele><time>2026-04-06T12:00:36Z</time></trkpt><trkpt lat="46.260188733161" lon="13.08792497565155"><ele>187.0</ele><time>2026-04-06T12:00:37Z</time></trkpt><trkpt lat="46.26039127836292" lon="13.087985282830639"><ele>187.0</ele><time>2026-04-06T12:00:38Z</time></trkpt><trkpt lat="46.26059848187898" lon="13.088049251691151"><ele>187.0</ele><time>2026-04-06T12:00:39Z</time></trkpt><trkpt lat="46.260811744311454" lon="13.088110850798335"><ele>186.66666666666669</ele><time>2026-04-06T12:00:40Z</time></trkpt><trkpt lat="46.261026693699094" lon="13.088175593422122"><ele>186.33333333333334</ele><time>2026-04-06T12:00:41Z</time></trkpt><trkpt lat="46.261228532669946" lon="13.088237279987615"><ele>186.0</ele><time>2026-04-06T12:00:42Z</time></trkpt><trkpt lat="46.26141677503606" lon="13.088296328438611"><ele>186.66666666666666</ele><time>2026-04-06T12:00:43Z</time></trkpt><trkpt lat="46.26159598028139" lon="13.088351893957775"><ele>187.33333333333331</ele><time>2026-04-06T12:00:44Z</time></trkpt><trkpt lat="46.26177038940058" lon="13.088404471347323"><ele>188.0</ele><time>2026-04-06T12:00:45Z</time></trkpt><trkpt lat="46.261939834134694" lon="13.088455561944818"><ele>188.0</ele><time>2026-04-06T12:00:46Z</time></trkpt><trkpt lat="46.262106473967364" lon="13.088505271979571"><ele>188.0</ele><time>2026-04-06T12:00:47Z</time></trkpt><trkpt lat="46.262276503579514" lon="13.088561582762942"><ele>188.0</ele><time>2026-04-06T12:00:48Z</time></trkpt><trkpt lat="46.26245417241969" lon="13.088616025742477"><ele>188.66666666666666</ele><time>2026-04-06T12:00:49Z</time></trkpt><trkpt lat="46.262628136955904" lon="13.088670561244715"><ele>189.33333333333334</ele><time>2026-04-06T12:00:50Z</time></trkpt><trkpt lat="46.26279146453554" lon="13.088721227999269"><ele>190.0</ele><time>2026-04-06T12:00:51Z</time></trkpt><trkpt lat="46.26294990156998" lon="13.088766512562668"><ele>190.0</ele><time>2026-04-06T12:00:52Z</time></trkpt><trkpt lat="46.263100276778935" lon="13.08881006319781"><ele>190.0</ele><time>2026-04-06T12:00:53Z</time></trkpt><trkpt lat="46.26324307873911" lon="13.088852323681412"><ele>190.0</ele><time>2026-04-06T12:00:54Z</time></trkpt><trkpt lat="46.26338794860179" lon="13.088898101466286"><ele>190.0</ele><time>2026-04-06T12:00:55Z</time></trkpt><trkpt lat="46.26354203405612" lon="13.088949353255547"><ele>189.0</ele><time>2026-04-06T12:00:56Z</time></trkpt><trkpt lat="46.26370212007821" lon="13.088998789150576"><ele>188.0</ele><time>2026-04-06T12:00:57Z</time></trkpt><trkpt lat="46.263866098714466" lon="13.089048157896855"><ele>187.0</ele><time>2026-04-06T12:00:58Z</time></trkpt><trkpt lat="46.264033983804296" lon="13.089099424701583"><ele>186.33333333333334</ele><time>2026-04-06T12:00:59Z</time></trkpt><trkpt lat="46.264196007470225" lon="13.08914815633811"><ele>185.66666666666666</ele><time>2026-04-06T12:01:00Z</time></trkpt><trkpt lat="46.264350675596106" lon="13.089193631220423"><ele>185.0</ele><time>2026-04-06T12:01:01Z</time></trkpt><trkpt lat="46.26449786739513" lon="13.089239265373925"><ele>185.0</ele><time>2026-04-06T12:01:02Z</time></trkpt><trkpt lat="46.26464830502346" lon="13.089285866304918"><ele>185.0</ele><time>2026-04-06T12:01:03Z</time></trkpt><trkpt lat="46.26480741361547" lon="13.089331019514777"><ele>185.0</ele><time>2026-04-06T12:01:04Z</time></trkpt><trkpt lat="46.26496634001516" lon="13.08937789626525"><ele>185.25</ele><time>2026-04-06T12:01:05Z</time></trkpt><trkpt lat="46.26511769511613" lon="13.089428816281293"><ele>185.5</ele><time>2026-04-06T12:01:06Z</time></trkpt><trkpt lat="46.26526043654589" lon="13.089475208956431"><ele>185.75</ele><time>2026-04-06T12:01:07Z</time></trkpt><trkpt lat="46.26540270065965" lon="13.089519444133131"><ele>186.0</ele><time>2026-04-06T12:01:08Z</time></trkpt><trkpt lat="46.26555347641661" lon="13.08956635579381"><ele>185.66666666666666</ele><time>2026-04-06T12:01:09Z</time></trkpt><trkpt lat="46.265705870682254" lon="13.089614535924108"><ele>185.33333333333331</ele><time>2026-04-06T12:01:10Z</time></trkpt><trkpt lat="46.26586219436765" lon="13.089665851148805"><ele>185.0</ele><time>2026-04-06T12:01:11Z</time></trkpt><trkpt lat="46.26601944875998" lon="13.08972357655086"><ele>185.0</ele><time>2026-04-06T12:01:12Z</time></trkpt><trkpt lat="46.26616532507115" lon="13.089793493081332"><ele>185.0</ele><time>2026-04-06T12:01:13Z</time></trkpt><trkpt lat="46.266302321047114" lon="13.089881762460863"><ele>185.0</ele><time>2026-04-06T12:01:14Z</time></trkpt><trkpt lat="46.26644133664452" lon="13.089984987110821"><ele>186.66666666666666</ele><time>2026-04-06T12:01:15Z</time></trkpt><trkpt lat="46.26657454594721" lon="13.090094339152657"><ele>188.33333333333334</ele><time>2026-04-06T12:01:16Z</time></trkpt><trkpt lat="46.266699832839095" lon="13.090203659160332"><ele>190.0</ele><time>2026-04-06T12:01:17Z</time></trkpt><trkpt lat="46.26682548215059" lon="13.090324090970556"><ele>190.0</ele><time>2026-04-06T12:01:18Z</time></trkpt><trkpt lat="46.26694936093838" lon="13.090458405270775"><ele>190.0</ele><time>2026-04-06T12:01:19Z</time></trkpt><trkpt lat="46.267075611195054" lon="13.090610133152786"><ele>190.0</ele><time>2026-04-06T12:01:20Z</time></trkpt><trkpt lat="46.26719629388546" lon="13.090754338401798"><ele>189.75</ele><time>2026-04-06T12:01:21Z</time></trkpt><trkpt lat="46.26731002262002" lon="13.090889599975652"><ele>189.5</ele><time>2026-04-06T12:01:22Z</time></trkpt><trkpt lat="46.267417881854605" lon="13.091017268472216"><ele>189.25</ele><time>2026-04-06T12:01:23Z</time></trkpt><trkpt lat="46.267529894907014" lon="13.091155101125658"><ele>189.0</ele><time>2026-04-06T12:01:24Z</time></trkpt><trkpt lat="46.26764694538655" lon="13.091301627208729"><ele>189.0</ele><time>2026-04-06T12:01:25Z</time></trkpt><trkpt lat="46.26776922794423" lon="13.091450663372575"><ele>189.0</ele><time>2026-04-06T12:01:26Z</time></trkpt><trkpt lat="46.26788983672118" lon="13.09159737643848"><ele>189.0</ele><time>2026-04-06T12:01:27Z</time></trkpt><trkpt lat="46.26800402597797" lon="13.091735969298474"><ele>188.75</ele><time>2026-04-06T12:01:28Z</time></trkpt><trkpt lat="46.26811286219196" lon="13.091869752677"><ele>188.5</ele><time>2026-04-06T12:01:29Z</time></trkpt><trkpt lat="46.26821590179848" lon="13.091996142555265"><ele>188.25</ele><time>2026-04-06T12:01:30Z</time></trkpt><trkpt lat="46.268321815786905" lon="13.09212055411196"><ele>188.0</ele><time>2026-04-06T12:01:31Z</time></trkpt><trkpt lat="46.26843453580853" lon="13.092251972831445"><ele>188.0</ele><time>2026-04-06T12:01:32Z</time></trkpt><trkpt lat="46.26855064698517" lon="13.092406926490694"><ele>188.0</ele><time>2026-04-06T12:01:33Z</time></trkpt><trkpt lat="46.26866901467171" lon="13.092564331106093"><ele>188.0</ele><time>2026-04-06T12:01:34Z</time></trkpt><trkpt lat="46.26879153834502" lon="13.092721870595877"><ele>188.25</ele><time>2026-04-06T12:01:35Z</time></trkpt><trkpt lat="46.26886024069318" lon="13.092772194674797"><ele>188.5</ele><time>2026-04-06T12:01:36Z</time></trkpt><trkpt lat="46.26898973264605" lon="13.09292511342333"><ele>188.75</ele><time>2026-04-06T12:01:37Z</time></trkpt><trkpt lat="46.26911465042318" lon="13.09309016367011"><ele>189.0</ele><time>2026-04-06T12:01:38Z</time></trkpt><trkpt lat="46.26924525591875" lon="13.0932512550374"><ele>189.0</ele><time>2026-04-06T12:01:39Z</time></trkpt><trkpt lat="46.26937586438152" lon="13.09340258674557"><ele>189.0</ele><time>2026-04-06T12:01:40Z</time></trkpt><trkpt lat="46.269503144312914" lon="13.0935593181706"><ele>189.0</ele><time>2026-04-06T12:01:41Z</time></trkpt><trkpt lat="46.269629707841695" lon="13.093712653702177"><ele>189.0</ele><time>2026-04-06T12:01:42Z</time></trkpt><trkpt lat="46.269755656602705" lon="13.093850724038798"><ele>189.0</ele><time>2026-04-06T12:01:43Z</time></trkpt><trkpt lat="46.26988106552179" lon="13.09399538992893"><ele>189.0</ele><time>2026-04-06T12:01:44Z</time></trkpt><trkpt lat="46.270006679348164" lon="13.094121550199029"><ele>189.25</ele><time>2026-04-06T12:01:45Z</time></trkpt><trkpt lat="46.27010677757739" lon="13.094217989949872"><ele>189.5</ele><time>2026-04-06T12:01:46Z</time></trkpt><trkpt lat="46.27020136980089" lon="13.09430201137944"><ele>189.75</ele><time>2026-04-06T12:01:47Z</time></trkpt><trkpt lat="46.270317403264265" lon="13.094423727702377"><ele>190.0</ele><time>2026-04-06T12:01:48Z</time></trkpt><trkpt lat="46.270441595597376" lon="13.094583607092677"><ele>190.0</ele><time>2026-04-06T12:01:49Z</time></trkpt><trkpt lat="46.270595671619255" lon="13.094738753321934"><ele>190.0</ele><time>2026-04-06T12:01:50Z</time></trkpt><trkpt lat="46.270749250439785" lon="13.094899525166072"><ele>190.0</ele><time>2026-04-06T12:01:51Z</time></trkpt><trkpt lat="46.27088788598579" lon="13.095055504729029"><ele>190.66666666666669</ele><time>2026-04-06T12:01:52Z</time></trkpt><trkpt lat="46.271020533094756" lon="13.095199369421005"><ele>191.33333333333334</ele><time>2026-04-06T12:01:53Z</time></trkpt><trkpt lat="46.2711662737606" lon="13.095354553388699"><ele>192.0</ele><time>2026-04-06T12:01:54Z</time></trkpt><trkpt lat="46.271307203523776" lon="13.095506074474272"><ele>192.0</ele><time>2026-04-06T12:01:55Z</time></trkpt><trkpt lat="46.27143932293682" lon="13.09564808653698"><ele>192.0</ele><time>2026-04-06T12:01:56Z</time></trkpt><trkpt lat="46.27156887435856" lon="13.095777751244428"><ele>192.0</ele><time>2026-04-06T12:01:57Z</time></trkpt><trkpt lat="46.27169259478737" lon="13.095915576484554"><ele>192.33333333333331</ele><time>2026-04-06T12:01:58Z</time></trkpt><trkpt lat="46.271828599764376" lon="13.096069143260928"><ele>192.66666666666666</ele><time>2026-04-06T12:01:59Z</time></trkpt><trkpt lat="46.27197838869056" lon="13.096229130607187"><ele>193.0</ele><time>2026-04-06T12:02:00Z</time></trkpt><trkpt lat="46.2721438092756" lon="13.096391566430107"><ele>192.66666666666666</ele><time>2026-04-06T12:02:01Z</time></trkpt><trkpt lat="46.27231428594319" lon="13.096570998416174"><ele>192.33333333333331</ele><time>2026-04-06T12:02:02Z</time></trkpt><trkpt lat="46.27248525592611" lon="13.0967585426626"><ele>192.0</ele><time>2026-04-06T12:02:03Z</time></trkpt><trkpt lat="46.272664682572994" lon="13.096946740593435"><ele>191.5</ele><time>2026-04-06T12:02:04Z</time></trkpt><trkpt lat="46.27284703692203" lon="13.09713800436637"><ele>191.0</ele><time>2026-04-06T12:02:05Z</time></trkpt><trkpt lat="46.2730320112099" lon="13.097338819346774"><ele>191.33333333333331</ele><time>2026-04-06T12:02:06Z</time></trkpt><trkpt lat="46.273212370187935" lon="13.097536651201214"><ele>191.66666666666666</ele><time>2026-04-06T12:02:07Z</time></trkpt><trkpt lat="46.273381205377284" lon="13.097714183471313"><ele>192.0</ele><time>2026-04-06T12:02:08Z</time></trkpt><trkpt lat="46.27353974882483" lon="13.097883269787278"><ele>192.0</ele><time>2026-04-06T12:02:09Z</time></trkpt><trkpt lat="46.2736947408967" lon="13.098047687200262"><ele>192.0</ele><time>2026-04-06T12:02:10Z</time></trkpt><trkpt lat="46.27385633819825" lon="13.098217355087344"><ele>192.0</ele><time>2026-04-06T12:02:11Z</time></trkpt><trkpt lat="46.27401790313804" lon="13.098388285485571"><ele>192.0</ele><time>2026-04-06T12:02:12Z</time></trkpt><trkpt lat="46.274173741151806" lon="13.098557407649864"><ele>192.0</ele><time>2026-04-06T12:02:13Z</time></trkpt><trkpt lat="46.27433325176235" lon="13.098728229235665"><ele>192.0</ele><time>2026-04-06T12:02:14Z</time></trkpt><trkpt lat="46.27449593201681" lon="13.09889837589456"><ele>192.0</ele><time>2026-04-06T12:02:15Z</time></trkpt><trkpt lat="46.27465810153123" lon="13.09907154798388"><ele>192.0</ele><time>2026-04-06T12:02:16Z</time></trkpt><trkpt lat="46.27481102736045" lon="13.099237270040678"><ele>192.0</ele><time>2026-04-06T12:02:17Z</time></trkpt><trkpt lat="46.27495253780668" lon="13.099390781242766"><ele>192.33333333333331</ele><time>2026-04-06T12:02:18Z</time></trkpt><trkpt lat="46.275090977674495" lon="13.099536838631426"><ele>192.66666666666666</ele><time>2026-04-06T12:02:19Z</time></trkpt><trkpt lat="46.27522315269628" lon="13.099676449990351"><ele>193.0</ele><time>2026-04-06T12:02:20Z</time></trkpt><trkpt lat="46.275352611994236" lon="13.099811988438441"><ele>193.0</ele><time>2026-04-06T12:02:21Z</time></trkpt><trkpt lat="46.2754816015274" lon="13.099941194744959"><ele>193.0</ele><time>2026-04-06T12:02:22Z</time></trkpt><trkpt lat="46.27560707999226" lon="13.100050649436868"><ele>193.0</ele><time>2026-04-06T12:02:23Z</time></trkpt><trkpt lat="46.275732609776945" lon="13.100141246264286"><ele>193.0</ele><time>2026-04-06T12:02:24Z</time></trkpt><trkpt lat="46.275860929531035" lon="13.100228679170279"><ele>193.66666666666666</ele><time>2026-04-06T12:02:25Z</time></trkpt><trkpt lat="46.276006717440154" lon="13.100309535765227"><ele>194.33333333333331</ele><time>2026-04-06T12:02:26Z</time></trkpt><trkpt lat="46.27616714965281" lon="13.10038009615363"><ele>195.0</ele><time>2026-04-06T12:02:27Z</time></trkpt><trkpt lat="46.27633504587916" lon="13.100449707103898"><ele>195.66666666666669</ele><time>2026-04-06T12:02:28Z</time></trkpt><trkpt lat="46.276508411151944" lon="13.100498786266794"><ele>196.33333333333334</ele><time>2026-04-06T12:02:29Z</time></trkpt><trkpt lat="46.276680600535855" lon="13.100519161242318"><ele>197.0</ele><time>2026-04-06T12:02:30Z</time></trkpt><trkpt lat="46.27683914465911" lon="13.100528430167055"><ele>197.0</ele><time>2026-04-06T12:02:31Z</time></trkpt><trkpt lat="46.276988716533495" lon="13.100529236467851"><ele>197.0</ele><time>2026-04-06T12:02:32Z</time></trkpt><trkpt lat="46.277142047216486" lon="13.100516336726384"><ele>197.0</ele><time>2026-04-06T12:02:33Z</time></trkpt><trkpt lat="46.27732174736529" lon="13.100485959811598"><ele>196.66666666666669</ele><time>2026-04-06T12:02:34Z</time></trkpt><trkpt lat="46.27752961852587" lon="13.100433518938429"><ele>196.33333333333331</ele><time>2026-04-06T12:02:35Z</time></trkpt><trkpt lat="46.27774554374321" lon="13.100361726294853"><ele>196.0</ele><time>2026-04-06T12:02:36Z</time></trkpt><trkpt lat="46.27795480613548" lon="13.100261970449628"><ele>196.0</ele><time>2026-04-06T12:02:37Z</time></trkpt><trkpt lat="46.27813752278608" lon="13.100137706526581"><ele>196.0</ele><time>2026-04-06T12:02:38Z</time></trkpt><trkpt lat="46.27849347056567" lon="13.09983355219107"><ele>196.0</ele><time>2026-04-06T12:02:40Z</time></trkpt><trkpt lat="46.27866261387308" lon="13.099648782212823"><ele>196.0</ele><time>2026-04-06T12:02:41Z</time></trkpt><trkpt lat="46.27881892592601" lon="13.099458534835748"><ele>196.0</ele><time>2026-04-06T12:02:42Z</time></trkpt><trkpt lat="46.27896845828932" lon="13.09925092264993"><ele>196.0</ele><time>2026-04-06T12:02:43Z</time></trkpt><trkpt lat="46.279119355226776" lon="13.09901397385024"><ele>196.0</ele><time>2026-04-06T12:02:44Z</time></trkpt><trkpt lat="46.27927344539166" lon="13.098765951231732"><ele>196.0</ele><time>2026-04-06T12:02:45Z</time></trkpt><trkpt lat="46.279427888369725" lon="13.098515605413924"><ele>196.0</ele><time>2026-04-06T12:02:46Z</time></trkpt><trkpt lat="46.279575829605726" lon="13.098285485238403"><ele>196.0</ele><time>2026-04-06T12:02:47Z</time></trkpt><trkpt lat="46.27971540271138" lon="13.098072838880885"><ele>197.0</ele><time>2026-04-06T12:02:48Z</time></trkpt><trkpt lat="46.27985680313161" lon="13.097858656161145"><ele>198.0</ele><time>2026-04-06T12:02:49Z</time></trkpt><trkpt lat="46.279988162459006" lon="13.097657182454162"><ele>199.0</ele><time>2026-04-06T12:02:50Z</time></trkpt><trkpt lat="46.28010941009786" lon="13.09746745284037"><ele>198.66666666666666</ele><time>2026-04-06T12:02:51Z</time></trkpt><trkpt lat="46.280224049278665" lon="13.097291181670915"><ele>198.33333333333331</ele><time>2026-04-06T12:02:52Z</time></trkpt><trkpt lat="46.28033253639217" lon="13.097126942884271"><ele>198.0</ele><time>2026-04-06T12:02:53Z</time></trkpt><trkpt lat="46.28043267077264" lon="13.09696932303712"><ele>198.0</ele><time>2026-04-06T12:02:54Z</time></trkpt><trkpt lat="46.28052490027523" lon="13.09682021949408"><ele>198.0</ele><time>2026-04-06T12:02:55Z</time></trkpt><trkpt lat="46.28061645800922" lon="13.096676816644528"><ele>198.0</ele><time>2026-04-06T12:02:56Z</time></trkpt><trkpt lat="46.280715737811185" lon="13.09652895296201"><ele>198.0</ele><time>2026-04-06T12:02:57Z</time></trkpt><trkpt lat="46.28080394066406" lon="13.096392472237204"><ele>198.5</ele><time>2026-04-06T12:02:58Z</time></trkpt><trkpt lat="46.28086779344513" lon="13.096292951357997"><ele>199.0</ele><time>2026-04-06T12:02:59Z</time></trkpt><trkpt lat="46.28093094681126" lon="13.096206770296495"><ele>199.5</ele><time>2026-04-06T12:03:00Z</time></trkpt><trkpt lat="46.28100267319065" lon="13.096146495288934"><ele>200.0</ele><time>2026-04-06T12:03:01Z</time></trkpt><trkpt lat="46.281078687054574" lon="13.096111230017167"><ele>200.5</ele><time>2026-04-06T12:03:02Z</time></trkpt><trkpt lat="46.28115418382024" lon="13.096088080264623"><ele>201.0</ele><time>2026-04-06T12:03:03Z</time></trkpt><trkpt lat="46.28122235153969" lon="13.096059264977715"><ele>201.0</ele><time>2026-04-06T12:03:04Z</time></trkpt><trkpt lat="46.281307453247045" lon="13.09597102958618"><ele>201.0</ele><time>2026-04-06T12:03:06Z</time></trkpt><trkpt lat="46.28134899538633" lon="13.09579927545262"><ele>201.0</ele><time>2026-04-06T12:03:08Z</time></trkpt><trkpt lat="46.281346721609495" lon="13.095686784876596"><ele>201.0</ele><time>2026-04-06T12:03:09Z</time></trkpt><trkpt lat="46.28135057886964" lon="13.095577464097847"><ele>201.0</ele><time>2026-04-06T12:03:10Z</time></trkpt><trkpt lat="46.28138392355572" lon="13.09547459053353"><ele>200.4</ele><time>2026-04-06T12:03:11Z</time></trkpt><trkpt lat="46.28144918539989" lon="13.095386903672384"><ele>199.8</ele><time>2026-04-06T12:03:12Z</time></trkpt><trkpt lat="46.28151837794567" lon="13.095295783904598"><ele>199.20000000000002</ele><time>2026-04-06T12:03:13Z</time></trkpt><trkpt lat="46.28158779714652" lon="13.095186366850882"><ele>198.60000000000002</ele><time>2026-04-06T12:03:14Z</time></trkpt><trkpt lat="46.28166989131471" lon="13.095054631962881"><ele>198.0</ele><time>2026-04-06T12:03:15Z</time></trkpt><trkpt lat="46.28177497181097" lon="13.094899863450177"><ele>197.66666666666669</ele><time>2026-04-06T12:03:16Z</time></trkpt><trkpt lat="46.281894748185046" lon="13.094719714508468"><ele>197.33333333333334</ele><time>2026-04-06T12:03:17Z</time></trkpt><trkpt lat="46.28202383741711" lon="13.094514722206961"><ele>197.0</ele><time>2026-04-06T12:03:18Z</time></trkpt><trkpt lat="46.28216839714365" lon="13.094286849886549"><ele>196.66666666666669</ele><time>2026-04-06T12:03:19Z</time></trkpt><trkpt lat="46.2823245935479" lon="13.094045066946965"><ele>196.33333333333331</ele><time>2026-04-06T12:03:20Z</time></trkpt><trkpt lat="46.28246775374132" lon="13.093823701848374"><ele>196.0</ele><time>2026-04-06T12:03:21Z</time></trkpt><trkpt lat="46.28260002001744" lon="13.093622110924933"><ele>196.0</ele><time>2026-04-06T12:03:22Z</time></trkpt><trkpt lat="46.28272301446251" lon="13.093436837482342"><ele>196.0</ele><time>2026-04-06T12:03:23Z</time></trkpt><trkpt lat="46.28283955799984" lon="13.093262683674368"><ele>196.0</ele><time>2026-04-06T12:03:24Z</time></trkpt><trkpt lat="46.2829513787" lon="13.093094431058876"><ele>196.0</ele><time>2026-04-06T12:03:25Z</time></trkpt><trkpt lat="46.28305359181202" lon="13.092934108820485"><ele>196.0</ele><time>2026-04-06T12:03:26Z</time></trkpt><trkpt lat="46.28314810670885" lon="13.092777036904216"><ele>196.0</ele><time>2026-04-06T12:03:27Z</time></trkpt><trkpt lat="46.28323542890874" lon="13.092627731010477"><ele>196.0</ele><time>2026-04-06T12:03:28Z</time></trkpt><trkpt lat="46.283325042399525" lon="13.092493970569345"><ele>196.8</ele><time>2026-04-06T12:03:29Z</time></trkpt><trkpt lat="46.2834119709325" lon="13.092368510160703"><ele>197.60000000000002</ele><time>2026-04-06T12:03:30Z</time></trkpt><trkpt lat="46.28348973876953" lon="13.092244083395531"><ele>198.4</ele><time>2026-04-06T12:03:31Z</time></trkpt><trkpt lat="46.28355512427532" lon="13.092133384493465"><ele>199.2</ele><time>2026-04-06T12:03:32Z</time></trkpt><trkpt lat="46.28360775554921" lon="13.092052607082607"><ele>200.0</ele><time>2026-04-06T12:03:33Z</time></trkpt><trkpt lat="46.2836805957589" lon="13.091952146414569"><ele>200.0</ele><time>2026-04-06T12:03:35Z</time></trkpt><trkpt lat="46.283749511504155" lon="13.091901563596656"><ele>200.0</ele><time>2026-04-06T12:03:37Z</time></trkpt><trkpt lat="46.28386192498467" lon="13.091868883390095"><ele>200.0</ele><time>2026-04-06T12:03:39Z</time></trkpt><trkpt lat="46.28393102227221" lon="13.09197060027859"><ele>200.0</ele><time>2026-04-06T12:03:40Z</time></trkpt><trkpt lat="46.283999954406205" lon="13.092058409794443"><ele>200.0</ele><time>2026-04-06T12:03:41Z</time></trkpt><trkpt lat="46.28408150302531" lon="13.092178742597113"><ele>200.25</ele><time>2026-04-06T12:03:42Z</time></trkpt><trkpt lat="46.284183304169844" lon="13.09230666582435"><ele>200.5</ele><time>2026-04-06T12:03:43Z</time></trkpt><trkpt lat="46.28428593749131" lon="13.09242965432208"><ele>200.75</ele><time>2026-04-06T12:03:44Z</time></trkpt><trkpt lat="46.28438292359101" lon="13.09256420210579"><ele>201.0</ele><time>2026-04-06T12:03:45Z</time></trkpt><trkpt lat="46.284494052431626" lon="13.092710202448739"><ele>200.33333333333331</ele><time>2026-04-06T12:03:46Z</time></trkpt><trkpt lat="46.28461904603822" lon="13.092869679092482"><ele>199.66666666666666</ele><time>2026-04-06T12:03:47Z</time></trkpt><trkpt lat="46.284737013736596" lon="13.093040722397662"><ele>199.0</ele><time>2026-04-06T12:03:48Z</time></trkpt><trkpt lat="46.28484089549948" lon="13.093207373608434"><ele>198.75</ele><time>2026-04-06T12:03:49Z</time></trkpt><trkpt lat="46.284936783009364" lon="13.093358094173407"><ele>198.5</ele><time>2026-04-06T12:03:50Z</time></trkpt><trkpt lat="46.285031159056835" lon="13.093500954313772"><ele>198.25</ele><time>2026-04-06T12:03:51Z</time></trkpt><trkpt lat="46.28511997772033" lon="13.093637190164356"><ele>198.0</ele><time>2026-04-06T12:03:52Z</time></trkpt><trkpt lat="46.285203165618626" lon="13.093771373878987"><ele>198.0</ele><time>2026-04-06T12:03:53Z</time></trkpt><trkpt lat="46.285286276029" lon="13.093897064594977"><ele>198.0</ele><time>2026-04-06T12:03:54Z</time></trkpt><trkpt lat="46.28537186266905" lon="13.094020194464063"><ele>198.0</ele><time>2026-04-06T12:03:55Z</time></trkpt><trkpt lat="46.28546502133295" lon="13.094145851970913"><ele>198.0</ele><time>2026-04-06T12:03:56Z</time></trkpt><trkpt lat="46.285567619310584" lon="13.094248336216678"><ele>198.5</ele><time>2026-04-06T12:03:57Z</time></trkpt><trkpt lat="46.28568051753548" lon="13.094326031236957"><ele>199.0</ele><time>2026-04-06T12:03:58Z</time></trkpt><trkpt lat="46.285805819042956" lon="13.094400154420422"><ele>199.5</ele><time>2026-04-06T12:03:59Z</time></trkpt><trkpt lat="46.28595210256542" lon="13.094459299480311"><ele>200.0</ele><time>2026-04-06T12:04:00Z</time></trkpt><trkpt lat="46.2861112839757" lon="13.094525893552804"><ele>200.0</ele><time>2026-04-06T12:04:01Z</time></trkpt><trkpt lat="46.28626923089563" lon="13.094602433722667"><ele>200.0</ele><time>2026-04-06T12:04:02Z</time></trkpt><trkpt lat="46.28641079433523" lon="13.094668279239645"><ele>200.0</ele><time>2026-04-06T12:04:03Z</time></trkpt><trkpt lat="46.28654238805304" lon="13.09471169690694"><ele>200.0</ele><time>2026-04-06T12:04:04Z</time></trkpt><trkpt lat="46.2866701141457" lon="13.09474914093513"><ele>200.0</ele><time>2026-04-06T12:04:05Z</time></trkpt><trkpt lat="46.286788663443176" lon="13.094792822633767"><ele>200.0</ele><time>2026-04-06T12:04:06Z</time></trkpt><trkpt lat="46.28689912512739" lon="13.09484398788331"><ele>200.0</ele><time>2026-04-06T12:04:07Z</time></trkpt><trkpt lat="46.28700152644788" lon="13.094902901688837"><ele>200.2</ele><time>2026-04-06T12:04:08Z</time></trkpt><trkpt lat="46.287096882089585" lon="13.094966356516382"><ele>200.4</ele><time>2026-04-06T12:04:09Z</time></trkpt><trkpt lat="46.28717960254856" lon="13.095033392388741"><ele>200.60000000000002</ele><time>2026-04-06T12:04:10Z</time></trkpt><trkpt lat="46.287257616368926" lon="13.095121812782011"><ele>200.8</ele><time>2026-04-06T12:04:11Z</time></trkpt><trkpt lat="46.287341140178775" lon="13.095227164704443"><ele>201.0</ele><time>2026-04-06T12:04:12Z</time></trkpt><trkpt lat="46.28742982861375" lon="13.095348179136321"><ele>202.60000000000002</ele><time>2026-04-06T12:04:13Z</time></trkpt><trkpt lat="46.28751868337493" lon="13.095433967857783"><ele>204.2</ele><time>2026-04-06T12:04:14Z</time></trkpt><trkpt lat="46.28761762070597" lon="13.095484367060218"><ele>205.8</ele><time>2026-04-06T12:04:15Z</time></trkpt><trkpt lat="46.28773207352846" lon="13.095480377290132"><ele>207.39999999999998</ele><time>2026-04-06T12:04:16Z</time></trkpt><trkpt lat="46.28784663821414" lon="13.095417733497976"><ele>209.0</ele><time>2026-04-06T12:04:17Z</time></trkpt><trkpt lat="46.28796866582748" lon="13.095383277110148"><ele>209.0</ele><time>2026-04-06T12:04:18Z</time></trkpt><trkpt lat="46.28804524793842" lon="13.095329819989162"><ele>209.0</ele><time>2026-04-06T12:04:19Z</time></trkpt><trkpt lat="46.28818697497742" lon="13.09531477781843"><ele>209.0</ele><time>2026-04-06T12:04:20Z</time></trkpt><trkpt lat="46.28834912765379" lon="13.095250494039105"><ele>209.0</ele><time>2026-04-06T12:04:21Z</time></trkpt><trkpt lat="46.28850564845134" lon="13.09523942989908"><ele>214.66666666666669</ele><time>2026-04-06T12:04:22Z</time></trkpt><trkpt lat="46.28867271502225" lon="13.095267863999197"><ele>220.33333333333331</ele><time>2026-04-06T12:04:23Z</time></trkpt><trkpt lat="46.28882495149948" lon="13.095338473037824"><ele>226.0</ele><time>2026-04-06T12:04:24Z</time></trkpt><trkpt lat="46.28903244463441" lon="13.095332186384292"><ele>226.0</ele><time>2026-04-06T12:04:25Z</time></trkpt><trkpt lat="46.289218091543994" lon="13.095348789233604"><ele>226.0</ele><time>2026-04-06T12:04:26Z</time></trkpt><trkpt lat="46.28937689736871" lon="13.095369613495734"><ele>226.0</ele><time>2026-04-06T12:04:27Z</time></trkpt><trkpt lat="46.289525486410064" lon="13.09541056822187"><ele>226.0</ele><time>2026-04-06T12:04:28Z</time></trkpt><trkpt lat="46.289688651839796" lon="13.095494771963216"><ele>226.0</ele><time>2026-04-06T12:04:29Z</time></trkpt><trkpt lat="46.28986963613961" lon="13.095619117996042"><ele>226.0</ele><time>2026-04-06T12:04:30Z</time></trkpt><trkpt lat="46.290069103896684" lon="13.095753318793443"><ele>219.66666666666666</ele><time>2026-04-06T12:04:31Z</time></trkpt><trkpt lat="46.29025571266666" lon="13.095895579454792"><ele>213.33333333333331</ele><time>2026-04-06T12:04:32Z</time></trkpt><trkpt lat="46.29042542112181" lon="13.096007097286142"><ele>207.0</ele><time>2026-04-06T12:04:33Z</time></trkpt><trkpt lat="46.2905793463849" lon="13.096112988724613"><ele>207.0</ele><time>2026-04-06T12:04:34Z</time></trkpt><trkpt lat="46.29072915272003" lon="13.096209521617576"><ele>207.0</ele><time>2026-04-06T12:04:35Z</time></trkpt><trkpt lat="46.290888025738234" lon="13.096308982951205"><ele>207.0</ele><time>2026-04-06T12:04:36Z</time></trkpt><trkpt lat="46.29106475994402" lon="13.096410330804371"><ele>227.66666666666669</ele><time>2026-04-06T12:04:37Z</time></trkpt><trkpt lat="46.291263468474455" lon="13.096476220083568"><ele>248.33333333333334</ele><time>2026-04-06T12:04:38Z</time></trkpt><trkpt lat="46.291463423874184" lon="13.096519538112558"><ele>269.0</ele><time>2026-04-06T12:04:39Z</time></trkpt><trkpt lat="46.29163991849434" lon="13.096569733274086"><ele>254.33333333333334</ele><time>2026-04-06T12:04:40Z</time></trkpt><trkpt lat="46.291823548349385" lon="13.096632047587697"><ele>239.66666666666669</ele><time>2026-04-06T12:04:41Z</time></trkpt><trkpt lat="46.29200580386357" lon="13.096698176015732"><ele>225.0</ele><time>2026-04-06T12:04:42Z</time></trkpt><trkpt lat="46.292173181798475" lon="13.096783056217832"><ele>226.0</ele><time>2026-04-06T12:04:43Z</time></trkpt><trkpt lat="46.29234978520781" lon="13.096909412624164"><ele>227.0</ele><time>2026-04-06T12:04:44Z</time></trkpt><trkpt lat="46.29253253129323" lon="13.097059707013951"><ele>228.0</ele><time>2026-04-06T12:04:45Z</time></trkpt><trkpt lat="46.292704112589995" lon="13.097196638695282"><ele>228.0</ele><time>2026-04-06T12:04:46Z</time></trkpt><trkpt lat="46.2928588878004" lon="13.097317049750105"><ele>228.0</ele><time>2026-04-06T12:04:47Z</time></trkpt><trkpt lat="46.293006695256814" lon="13.097430212172677"><ele>228.0</ele><time>2026-04-06T12:04:48Z</time></trkpt><trkpt lat="46.293153344752824" lon="13.097536701763412"><ele>228.5</ele><time>2026-04-06T12:04:49Z</time></trkpt><trkpt lat="46.29329389606009" lon="13.097623346904065"><ele>229.0</ele><time>2026-04-06T12:04:50Z</time></trkpt><trkpt lat="46.29342648965954" lon="13.097694436704334"><ele>229.5</ele><time>2026-04-06T12:04:51Z</time></trkpt><trkpt lat="46.29355316792373" lon="13.09774774692926"><ele>230.0</ele><time>2026-04-06T12:04:52Z</time></trkpt><trkpt lat="46.293676217636616" lon="13.097788964392318"><ele>230.0</ele><time>2026-04-06T12:04:53Z</time></trkpt><trkpt lat="46.29380131112435" lon="13.097834611656417"><ele>230.0</ele><time>2026-04-06T12:04:54Z</time></trkpt><trkpt lat="46.293926723115625" lon="13.097895790902271"><ele>230.0</ele><time>2026-04-06T12:04:55Z</time></trkpt><trkpt lat="46.29403264084795" lon="13.09796409824304"><ele>230.0</ele><time>2026-04-06T12:04:56Z</time></trkpt><trkpt lat="46.294151651009805" lon="13.098029167368871"><ele>232.25</ele><time>2026-04-06T12:04:57Z</time></trkpt><trkpt lat="46.29425289589077" lon="13.09813994774849"><ele>234.5</ele><time>2026-04-06T12:04:58Z</time></trkpt><trkpt lat="46.294360574753" lon="13.098239380413563"><ele>236.75</ele><time>2026-04-06T12:04:59Z</time></trkpt><trkpt lat="46.29446143557575" lon="13.098344361642317"><ele>239.0</ele><time>2026-04-06T12:05:00Z</time></trkpt><trkpt lat="46.29457523393871" lon="13.098457265039144"><ele>244.0</ele><time>2026-04-06T12:05:01.08Z</time></trkpt><trkpt lat="46.2950211675248" lon="13.098746782557233"><ele>244.0</ele><time>2026-04-06T12:05:03Z</time></trkpt><trkpt lat="46.295205056956895" lon="13.098810844251155"><ele>244.0</ele><time>2026-04-06T12:05:04Z</time></trkpt><trkpt lat="46.295329530989974" lon="13.09894521736383"><ele>244.0</ele><time>2026-04-06T12:05:05Z</time></trkpt><trkpt lat="46.29546115737942" lon="13.099047007889968"><ele>239.33333333333331</ele><time>2026-04-06T12:05:06Z</time></trkpt><trkpt lat="46.29559924426549" lon="13.099129154832037"><ele>234.66666666666669</ele><time>2026-04-06T12:05:07Z</time></trkpt><trkpt lat="46.295737098988006" lon="13.099229933145457"><ele>230.0</ele><time>2026-04-06T12:05:08Z</time></trkpt><trkpt lat="46.29588343531875" lon="13.099332671298287"><ele>230.0</ele><time>2026-04-06T12:05:09Z</time></trkpt><trkpt lat="46.29604415487673" lon="13.09939507250665"><ele>230.0</ele><time>2026-04-06T12:05:10Z</time></trkpt><trkpt lat="46.29619621828438" lon="13.09946948124362"><ele>230.0</ele><time>2026-04-06T12:05:11Z</time></trkpt><trkpt lat="46.296351589349264" lon="13.09951964156368"><ele>232.5</ele><time>2026-04-06T12:05:12Z</time></trkpt><trkpt lat="46.29648544114935" lon="13.099579759354102"><ele>235.0</ele><time>2026-04-06T12:05:13Z</time></trkpt><trkpt lat="46.29661585469139" lon="13.099638332882174"><ele>237.5</ele><time>2026-04-06T12:05:14Z</time></trkpt><trkpt lat="46.29676583798332" lon="13.09970530569845"><ele>240.0</ele><time>2026-04-06T12:05:15Z</time></trkpt><trkpt lat="46.29693491830102" lon="13.09977699313274"><ele>240.0</ele><time>2026-04-06T12:05:16Z</time></trkpt><trkpt lat="46.29711148751662" lon="13.09984999005428"><ele>240.0</ele><time>2026-04-06T12:05:17Z</time></trkpt><trkpt lat="46.29728731065103" lon="13.099923130494798"><ele>240.0</ele><time>2026-04-06T12:05:18Z</time></trkpt><trkpt lat="46.297461856250926" lon="13.099996852336242"><ele>234.0</ele><time>2026-04-06T12:05:19Z</time></trkpt><trkpt lat="46.29762754253511" lon="13.100080355720102"><ele>228.0</ele><time>2026-04-06T12:05:20Z</time></trkpt><trkpt lat="46.29778046942725" lon="13.100117474173326"><ele>222.0</ele><time>2026-04-06T12:05:21Z</time></trkpt><trkpt lat="46.29792110672903" lon="13.10014577223631"><ele>222.0</ele><time>2026-04-06T12:05:22Z</time></trkpt><trkpt lat="46.298047709802006" lon="13.100182315989406"><ele>222.0</ele><time>2026-04-06T12:05:23Z</time></trkpt><trkpt lat="46.2981674719311" lon="13.100216221399217"><ele>222.0</ele><time>2026-04-06T12:05:24Z</time></trkpt><trkpt lat="46.298283215382604" lon="13.100251734707275"><ele>222.0</ele><time>2026-04-06T12:05:25Z</time></trkpt><trkpt lat="46.29839570155025" lon="13.100289665155042"><ele>222.75</ele><time>2026-04-06T12:05:26Z</time></trkpt><trkpt lat="46.29850102526615" lon="13.100327078974322"><ele>223.5</ele><time>2026-04-06T12:05:27Z</time></trkpt><trkpt lat="46.29861483108919" lon="13.10035538496523"><ele>224.25</ele><time>2026-04-06T12:05:28Z</time></trkpt><trkpt lat="46.29873637136251" lon="13.10036331245051"><ele>225.0</ele><time>2026-04-06T12:05:29Z</time></trkpt><trkpt lat="46.29886230053208" lon="13.10034889237867"><ele>225.75</ele><time>2026-04-06T12:05:30Z</time></trkpt><trkpt lat="46.29900148993514" lon="13.100312554548566"><ele>226.5</ele><time>2026-04-06T12:05:31Z</time></trkpt><trkpt lat="46.299136262752945" lon="13.100277490445892"><ele>227.25</ele><time>2026-04-06T12:05:32Z</time></trkpt><trkpt lat="46.29925410028192" lon="13.100246138572336"><ele>228.0</ele><time>2026-04-06T12:05:33Z</time></trkpt><trkpt lat="46.29936546844129" lon="13.100213771287166"><ele>228.0</ele><time>2026-04-06T12:05:34Z</time></trkpt><trkpt lat="46.29949170027014" lon="13.100173440417846"><ele>228.0</ele><time>2026-04-06T12:05:35Z</time></trkpt><trkpt lat="46.2996327799207" lon="13.10012643874873"><ele>228.0</ele><time>2026-04-06T12:05:36Z</time></trkpt><trkpt lat="46.2997801332221" lon="13.100059993197052"><ele>228.0</ele><time>2026-04-06T12:05:37Z</time></trkpt><trkpt lat="46.29991446841215" lon="13.099986562910807"><ele>225.75</ele><time>2026-04-06T12:05:38Z</time></trkpt><trkpt lat="46.30004158071541" lon="13.09991984868814"><ele>223.5</ele><time>2026-04-06T12:05:39Z</time></trkpt><trkpt lat="46.30017235377004" lon="13.099859515791751"><ele>221.25</ele><time>2026-04-06T12:05:40Z</time></trkpt><trkpt lat="46.300313051985356" lon="13.099812925932365"><ele>219.0</ele><time>2026-04-06T12:05:41Z</time></trkpt><trkpt lat="46.30046659980385" lon="13.09979305325352"><ele>225.5</ele><time>2026-04-06T12:05:42Z</time></trkpt><trkpt lat="46.30061469761695" lon="13.09978431512293"><ele>232.0</ele><time>2026-04-06T12:05:43Z</time></trkpt><trkpt lat="46.30075723437378" lon="13.099774685221488"><ele>238.5</ele><time>2026-04-06T12:05:44Z</time></trkpt><trkpt lat="46.30088926088362" lon="13.099768529172723"><ele>245.0</ele><time>2026-04-06T12:05:45Z</time></trkpt><trkpt lat="46.30102193050721" lon="13.099771802405337"><ele>245.0</ele><time>2026-04-06T12:05:46Z</time></trkpt><trkpt lat="46.30115685709759" lon="13.099798690436893"><ele>245.0</ele><time>2026-04-06T12:05:47Z</time></trkpt><trkpt lat="46.301301220206525" lon="13.099871561379919"><ele>245.0</ele><time>2026-04-06T12:05:48Z</time></trkpt><trkpt lat="46.3014284490159" lon="13.099947350544694"><ele>245.0</ele><time>2026-04-06T12:05:49Z</time></trkpt><trkpt lat="46.30154897478851" lon="13.100013343207626"><ele>239.5</ele><time>2026-04-06T12:05:50Z</time></trkpt><trkpt lat="46.30166790920689" lon="13.10007513990355"><ele>234.0</ele><time>2026-04-06T12:05:51Z</time></trkpt><trkpt lat="46.30178178975354" lon="13.100159368700547"><ele>228.5</ele><time>2026-04-06T12:05:52Z</time></trkpt><trkpt lat="46.30189416860835" lon="13.100282079255898"><ele>223.0</ele><time>2026-04-06T12:05:53Z</time></trkpt><trkpt lat="46.30199768601761" lon="13.10044715156422"><ele>223.0</ele><time>2026-04-06T12:05:54Z</time></trkpt><trkpt lat="46.302081765353115" lon="13.100642356280298"><ele>223.0</ele><time>2026-04-06T12:05:55Z</time></trkpt><trkpt lat="46.30214575312093" lon="13.100825307916583"><ele>223.0</ele><time>2026-04-06T12:05:56Z</time></trkpt><trkpt lat="46.30220818409584" lon="13.100995808693861"><ele>223.0</ele><time>2026-04-06T12:05:57Z</time></trkpt><trkpt lat="46.30227220352308" lon="13.101158161639797"><ele>219.5</ele><time>2026-04-06T12:05:58Z</time></trkpt><trkpt lat="46.30233834043742" lon="13.101329813693532"><ele>216.0</ele><time>2026-04-06T12:05:59Z</time></trkpt><trkpt lat="46.30241354275295" lon="13.10150776199711"><ele>212.5</ele><time>2026-04-06T12:06:00Z</time></trkpt><trkpt lat="46.3024887513712" lon="13.101667765401864"><ele>209.0</ele><time>2026-04-06T12:06:01Z</time></trkpt><trkpt lat="46.30257674441982" lon="13.101803057786771"><ele>209.0</ele><time>2026-04-06T12:06:02Z</time></trkpt><trkpt lat="46.30268832021472" lon="13.101915539269715"><ele>209.0</ele><time>2026-04-06T12:06:03Z</time></trkpt><trkpt lat="46.30281149713231" lon="13.102018776861874"><ele>209.0</ele><time>2026-04-06T12:06:04Z</time></trkpt><trkpt lat="46.302934792479554" lon="13.102108554099416"><ele>209.0</ele><time>2026-04-06T12:06:05Z</time></trkpt><trkpt lat="46.30304722771694" lon="13.102194444902"><ele>209.25</ele><time>2026-04-06T12:06:06Z</time></trkpt><trkpt lat="46.30315146545369" lon="13.102273648924603"><ele>209.5</ele><time>2026-04-06T12:06:07Z</time></trkpt><trkpt lat="46.30325406137383" lon="13.102353328308569"><ele>209.75</ele><time>2026-04-06T12:06:08Z</time></trkpt><trkpt lat="46.303363622448416" lon="13.102437775045647"><ele>210.0</ele><time>2026-04-06T12:06:09Z</time></trkpt><trkpt lat="46.303476044848196" lon="13.102519566650331"><ele>210.0</ele><time>2026-04-06T12:06:10Z</time></trkpt><trkpt lat="46.30359324042603" lon="13.102590115363071"><ele>210.0</ele><time>2026-04-06T12:06:11Z</time></trkpt><trkpt lat="46.303719610808145" lon="13.102648839199546"><ele>210.0</ele><time>2026-04-06T12:06:12Z</time></trkpt><trkpt lat="46.30384222227266" lon="13.102719929827643"><ele>210.0</ele><time>2026-04-06T12:06:13Z</time></trkpt><trkpt lat="46.303957395697765" lon="13.102786294027638"><ele>209.5</ele><time>2026-04-06T12:06:14Z</time></trkpt><trkpt lat="46.30406775894219" lon="13.10284392631596"><ele>209.0</ele><time>2026-04-06T12:06:15Z</time></trkpt><trkpt lat="46.304175491265205" lon="13.102904182740138"><ele>208.5</ele><time>2026-04-06T12:06:16Z</time></trkpt><trkpt lat="46.304291495825495" lon="13.10296904894744"><ele>208.0</ele><time>2026-04-06T12:06:17Z</time></trkpt><trkpt lat="46.30441611064032" lon="13.103037892135365"><ele>208.0</ele><time>2026-04-06T12:06:18Z</time></trkpt><trkpt lat="46.30455276795014" lon="13.103113587478214"><ele>208.0</ele><time>2026-04-06T12:06:19Z</time></trkpt><trkpt lat="46.30469426214925" lon="13.103197488033315"><ele>208.0</ele><time>2026-04-06T12:06:20Z</time></trkpt><trkpt lat="46.30483448265236" lon="13.103284376080268"><ele>208.25</ele><time>2026-04-06T12:06:21Z</time></trkpt><trkpt lat="46.30496333609592" lon="13.10335321566288"><ele>208.5</ele><time>2026-04-06T12:06:22Z</time></trkpt><trkpt lat="46.30508427272753" lon="13.103417096433866"><ele>208.75</ele><time>2026-04-06T12:06:23Z</time></trkpt><trkpt lat="46.30519669495807" lon="13.103481313697124"><ele>209.0</ele><time>2026-04-06T12:06:24Z</time></trkpt><trkpt lat="46.305303324709875" lon="13.103545320866717"><ele>209.0</ele><time>2026-04-06T12:06:25Z</time></trkpt><trkpt lat="46.30542066920912" lon="13.103615205399713"><ele>209.0</ele><time>2026-04-06T12:06:26Z</time></trkpt><trkpt lat="46.30555031795806" lon="13.103692969437622"><ele>209.0</ele><time>2026-04-06T12:06:27Z</time></trkpt><trkpt lat="46.30568754393236" lon="13.103768626535253"><ele>209.0</ele><time>2026-04-06T12:06:28Z</time></trkpt><trkpt lat="46.30582051916115" lon="13.10384089276668"><ele>209.25</ele><time>2026-04-06T12:06:29Z</time></trkpt><trkpt lat="46.30594107938294" lon="13.103909970018032"><ele>209.5</ele><time>2026-04-06T12:06:30Z</time></trkpt><trkpt lat="46.306060899036815" lon="13.103992189918111"><ele>209.75</ele><time>2026-04-06T12:06:31Z</time></trkpt><trkpt lat="46.30617434197466" lon="13.104089912254667"><ele>210.0</ele><time>2026-04-06T12:06:32Z</time></trkpt><trkpt lat="46.306294068613866" lon="13.104201713906667"><ele>209.66666666666669</ele><time>2026-04-06T12:06:33Z</time></trkpt><trkpt lat="46.30642423516024" lon="13.104325765561455"><ele>209.33333333333334</ele><time>2026-04-06T12:06:34Z</time></trkpt><trkpt lat="46.306565994634084" lon="13.10446642204854"><ele>209.0</ele><time>2026-04-06T12:06:35Z</time></trkpt><trkpt lat="46.306709850678736" lon="13.104608429513481"><ele>209.0</ele><time>2026-04-06T12:06:36Z</time></trkpt><trkpt lat="46.30684384430198" lon="13.104736388457122"><ele>209.0</ele><time>2026-04-06T12:06:37Z</time></trkpt><trkpt lat="46.30696897566396" lon="13.104851093334648"><ele>209.0</ele><time>2026-04-06T12:06:38Z</time></trkpt><trkpt lat="46.307085919729026" lon="13.104964596946669"><ele>209.0</ele><time>2026-04-06T12:06:39Z</time></trkpt><trkpt lat="46.30719568611077" lon="13.105068831647769"><ele>209.0</ele><time>2026-04-06T12:06:40Z</time></trkpt><trkpt lat="46.30731299635802" lon="13.105177363198624"><ele>209.0</ele><time>2026-04-06T12:06:41Z</time></trkpt><trkpt lat="46.30743442998154" lon="13.105283417525358"><ele>209.0</ele><time>2026-04-06T12:06:42Z</time></trkpt><trkpt lat="46.30755576622615" lon="13.105360371950342"><ele>209.0</ele><time>2026-04-06T12:06:43Z</time></trkpt><trkpt lat="46.3076780184316" lon="13.105439601716972"><ele>209.0</ele><time>2026-04-06T12:06:44Z</time></trkpt><trkpt lat="46.30780805590112" lon="13.105522285377084"><ele>209.0</ele><time>2026-04-06T12:06:45Z</time></trkpt><trkpt lat="46.30794525904928" lon="13.10560134211404"><ele>209.0</ele><time>2026-04-06T12:06:46Z</time></trkpt><trkpt lat="46.30808643197014" lon="13.10568069216333"><ele>209.0</ele><time>2026-04-06T12:06:46.999Z</time></trkpt><trkpt lat="46.30821458512123" lon="13.105761136372593"><ele>210.0</ele><time>2026-04-06T12:06:47.999Z</time></trkpt><trkpt lat="46.30834494252456" lon="13.105844927271415"><ele>211.0</ele><time>2026-04-06T12:06:48.999Z</time></trkpt><trkpt lat="46.30848309412285" lon="13.105930327194217"><ele>212.0</ele><time>2026-04-06T12:06:49.999Z</time></trkpt><trkpt lat="46.30861474216909" lon="13.10600735130395"><ele>213.0</ele><time>2026-04-06T12:06:50.999Z</time></trkpt><trkpt lat="46.30875479078402" lon="13.106096937463636"><ele>213.0</ele><time>2026-04-06T12:06:51.999Z</time></trkpt><trkpt lat="46.30890376855558" lon="13.106186675458906"><ele>213.0</ele><time>2026-04-06T12:06:52.999Z</time></trkpt><trkpt lat="46.30904286486734" lon="13.106263930449169"><ele>213.0</ele><time>2026-04-06T12:06:53.999Z</time></trkpt><trkpt lat="46.3091744898407" lon="13.106339139183575"><ele>212.75</ele><time>2026-04-06T12:06:54.999Z</time></trkpt><trkpt lat="46.309298906650675" lon="13.106415649458253"><ele>212.5</ele><time>2026-04-06T12:06:55.999Z</time></trkpt><trkpt lat="46.309417674913824" lon="13.10649170541174"><ele>212.25</ele><time>2026-04-06T12:06:56.999Z</time></trkpt><trkpt lat="46.30953653020765" lon="13.106560932904815"><ele>212.0</ele><time>2026-04-06T12:06:57.999Z</time></trkpt><trkpt lat="46.30965190370353" lon="13.106632846925208"><ele>212.0</ele><time>2026-04-06T12:06:58.999Z</time></trkpt><trkpt lat="46.309766604778005" lon="13.106700408269576"><ele>212.0</ele><time>2026-04-06T12:06:59.999Z</time></trkpt><trkpt lat="46.30987894900721" lon="13.106763943114517"><ele>212.0</ele><time>2026-04-06T12:07:00.999Z</time></trkpt><trkpt lat="46.30999053266297" lon="13.106834707140578"><ele>212.0</ele><time>2026-04-06T12:07:01.999Z</time></trkpt><trkpt lat="46.310112003837354" lon="13.106913804066778"><ele>212.0</ele><time>2026-04-06T12:07:02.999Z</time></trkpt><trkpt lat="46.31023555003435" lon="13.106987321556549"><ele>212.0</ele><time>2026-04-06T12:07:03.999Z</time></trkpt><trkpt lat="46.310347501183315" lon="13.107050286058376"><ele>212.0</ele><time>2026-04-06T12:07:04.999Z</time></trkpt><trkpt lat="46.31046201643709" lon="13.107111865543743"><ele>212.0</ele><time>2026-04-06T12:07:05.999Z</time></trkpt><trkpt lat="46.310587458355016" lon="13.107178870491078"><ele>212.25</ele><time>2026-04-06T12:07:06.999Z</time></trkpt><trkpt lat="46.31071796371248" lon="13.107244424365398"><ele>212.5</ele><time>2026-04-06T12:07:07.999Z</time></trkpt><trkpt lat="46.31084987526076" lon="13.107287262560169"><ele>212.75</ele><time>2026-04-06T12:07:08.999Z</time></trkpt><trkpt lat="46.310980033816854" lon="13.107302058280498"><ele>213.0</ele><time>2026-04-06T12:07:09.999Z</time></trkpt><trkpt lat="46.31110258036844" lon="13.107302931969759"><ele>213.0</ele><time>2026-04-06T12:07:10.999Z</time></trkpt><trkpt lat="46.311219949623364" lon="13.107291492318652"><ele>213.0</ele><time>2026-04-06T12:07:11.999Z</time></trkpt><trkpt lat="46.31133065587299" lon="13.107265376017494"><ele>213.0</ele><time>2026-04-06T12:07:12.999Z</time></trkpt><trkpt lat="46.311430595656894" lon="13.107231091710922"><ele>213.0</ele><time>2026-04-06T12:07:13.999Z</time></trkpt><trkpt lat="46.31154025525802" lon="13.107194060580529"><ele>213.0</ele><time>2026-04-06T12:07:14.999Z</time></trkpt><trkpt lat="46.31166951197711" lon="13.10715235239197"><ele>214.0</ele><time>2026-04-06T12:07:15.999Z</time></trkpt><trkpt lat="46.31181677434843" lon="13.107107473403362"><ele>215.0</ele><time>2026-04-06T12:07:16.999Z</time></trkpt><trkpt lat="46.311925736823774" lon="13.10706803640657"><ele>216.0</ele><time>2026-04-06T12:07:17.999Z</time></trkpt><trkpt lat="46.31204241738913" lon="13.107028963586725"><ele>217.0</ele><time>2026-04-06T12:07:18.999Z</time></trkpt><trkpt lat="46.31215919461921" lon="13.106989111736405"><ele>217.2</ele><time>2026-04-06T12:07:19.999Z</time></trkpt><trkpt lat="46.31228052714646" lon="13.10694892677184"><ele>217.39999999999998</ele><time>2026-04-06T12:07:20.999Z</time></trkpt><trkpt lat="46.31239512450093" lon="13.106909207347718"><ele>217.60000000000002</ele><time>2026-04-06T12:07:21.999Z</time></trkpt><trkpt lat="46.31249572037457" lon="13.106875939885683"><ele>217.8</ele><time>2026-04-06T12:07:22.999Z</time></trkpt><trkpt lat="46.312588202454094" lon="13.10684669670603"><ele>218.0</ele><time>2026-04-06T12:07:23.999Z</time></trkpt><trkpt lat="46.31269950778698" lon="13.106818663217295"><ele>218.0</ele><time>2026-04-06T12:07:24.999Z</time></trkpt><trkpt lat="46.31278998730495" lon="13.106789468480702"><ele>218.0</ele><time>2026-04-06T12:07:25.999Z</time></trkpt><trkpt lat="46.31288273308629" lon="13.106754398362003"><ele>218.0</ele><time>2026-04-06T12:07:26.999Z</time></trkpt><trkpt lat="46.31297799022207" lon="13.1067181491892"><ele>218.0</ele><time>2026-04-06T12:07:27.999Z</time></trkpt><trkpt lat="46.31306285457175" lon="13.106689292161363"><ele>218.0</ele><time>2026-04-06T12:07:28.999Z</time></trkpt><trkpt lat="46.313162999605915" lon="13.10666089387787"><ele>218.2</ele><time>2026-04-06T12:07:29.999Z</time></trkpt><trkpt lat="46.313270017317016" lon="13.106616827096403"><ele>218.4</ele><time>2026-04-06T12:07:30.999Z</time></trkpt><trkpt lat="46.31337755849003" lon="13.106567713331662"><ele>218.59999999999997</ele><time>2026-04-06T12:07:31.999Z</time></trkpt><trkpt lat="46.313469229061575" lon="13.106507689370135"><ele>218.79999999999998</ele><time>2026-04-06T12:07:32.999Z</time></trkpt><trkpt lat="46.31354807254368" lon="13.106450317844972"><ele>219.0</ele><time>2026-04-06T12:07:33.999Z</time></trkpt><trkpt lat="46.313626561966494" lon="13.106403430646395"><ele>219.0</ele><time>2026-04-06T12:07:34.999Z</time></trkpt><trkpt lat="46.31369476190461" lon="13.106358970769987"><ele>219.0</ele><time>2026-04-06T12:07:35.999Z</time></trkpt><trkpt lat="46.31375980790035" lon="13.106311766987087"><ele>219.0</ele><time>2026-04-06T12:07:36.999Z</time></trkpt><trkpt lat="46.31384095349425" lon="13.106263153556368"><ele>219.0</ele><time>2026-04-06T12:07:37.999Z</time></trkpt><trkpt lat="46.3139175922203" lon="13.10619743330432"><ele>219.0</ele><time>2026-04-06T12:07:38.999Z</time></trkpt><trkpt lat="46.313995853362634" lon="13.106139340886267"><ele>219.0</ele><time>2026-04-06T12:07:39.999Z</time></trkpt><trkpt lat="46.314069517717066" lon="13.10608312714666"><ele>219.0</ele><time>2026-04-06T12:07:40.999Z</time></trkpt><trkpt lat="46.31414113978186" lon="13.106013389085879"><ele>219.0</ele><time>2026-04-06T12:07:41.999Z</time></trkpt><trkpt lat="46.31421090365833" lon="13.105963666323213"><ele>219.0</ele><time>2026-04-06T12:07:42.999Z</time></trkpt><trkpt lat="46.314276853461536" lon="13.105905329474222"><ele>219.0</ele><time>2026-04-06T12:07:43.999Z</time></trkpt><trkpt lat="46.31435120140627" lon="13.105838374685407"><ele>219.0</ele><time>2026-04-06T12:07:44.999Z</time></trkpt><trkpt lat="46.31442601065517" lon="13.105763764928566"><ele>219.0</ele><time>2026-04-06T12:07:45.999Z</time></trkpt><trkpt lat="46.31450020886062" lon="13.105680474565386"><ele>219.39999999999998</ele><time>2026-04-06T12:07:46.999Z</time></trkpt><trkpt lat="46.314569995883474" lon="13.105579987984985"><ele>219.79999999999998</ele><time>2026-04-06T12:07:47.999Z</time></trkpt><trkpt lat="46.314634067350774" lon="13.105457549694737"><ele>220.20000000000002</ele><time>2026-04-06T12:07:48.999Z</time></trkpt><trkpt lat="46.31468757583981" lon="13.10531780206398"><ele>220.60000000000002</ele><time>2026-04-06T12:07:49.999Z</time></trkpt><trkpt lat="46.31472984719581" lon="13.10517329855929"><ele>221.0</ele><time>2026-04-06T12:07:50.999Z</time></trkpt><trkpt lat="46.314782777458696" lon="13.10502869088752"><ele>222.0</ele><time>2026-04-06T12:07:51.999Z</time></trkpt><trkpt lat="46.31483215411532" lon="13.1048885045503"><ele>223.00000000000003</ele><time>2026-04-06T12:07:52.999Z</time></trkpt><trkpt lat="46.31488160694842" lon="13.104759344849679"><ele>224.00000000000003</ele><time>2026-04-06T12:07:53.999Z</time></trkpt><trkpt lat="46.31493104438216" lon="13.104633102138461"><ele>225.0</ele><time>2026-04-06T12:07:54.999Z</time></trkpt><trkpt lat="46.31497290756454" lon="13.104512326394369"><ele>226.0</ele><time>2026-04-06T12:07:55.999Z</time></trkpt><trkpt lat="46.31501574175884" lon="13.104389412843412"><ele>225.99999999999997</ele><time>2026-04-06T12:07:56.999Z</time></trkpt><trkpt lat="46.31505565391722" lon="13.10427981692685"><ele>226.0</ele><time>2026-04-06T12:07:57.999Z</time></trkpt><trkpt lat="46.315094771242634" lon="13.10418263244757"><ele>226.0</ele><time>2026-04-06T12:07:58.999Z</time></trkpt><trkpt lat="46.3151291714826" lon="13.104089742703778"><ele>226.0</ele><time>2026-04-06T12:07:59.999Z</time></trkpt><trkpt lat="46.315174343967605" lon="13.103983589376014"><ele>225.99999999999997</ele><time>2026-04-06T12:08:00.999Z</time></trkpt><trkpt lat="46.31521551133467" lon="13.103862242903507"><ele>226.0</ele><time>2026-04-06T12:08:01.999Z</time></trkpt><trkpt lat="46.315248518808275" lon="13.103728008405524"><ele>227.4</ele><time>2026-04-06T12:08:02.999Z</time></trkpt><trkpt lat="46.315251192575666" lon="13.103604161322778"><ele>228.8</ele><time>2026-04-06T12:08:03.999Z</time></trkpt><trkpt lat="46.315263017936296" lon="13.10347998596973"><ele>230.20000000000002</ele><time>2026-04-06T12:08:04.999Z</time></trkpt><trkpt lat="46.31524592721322" lon="13.10333317844643"><ele>231.60000000000002</ele><time>2026-04-06T12:08:05.999Z</time></trkpt><trkpt lat="46.31525089239866" lon="13.103179136868405"><ele>233.0</ele><time>2026-04-06T12:08:06.999Z</time></trkpt><trkpt lat="46.31525875956222" lon="13.1030208593522"><ele>233.33333333333334</ele><time>2026-04-06T12:08:07.999Z</time></trkpt><trkpt lat="46.315269113794486" lon="13.102869424385366"><ele>233.66666666666669</ele><time>2026-04-06T12:08:08.999Z</time></trkpt><trkpt lat="46.31527081477911" lon="13.102743471760567"><ele>234.0</ele><time>2026-04-06T12:08:09.999Z</time></trkpt><trkpt lat="46.31527560932719" lon="13.102648014504046"><ele>234.33333333333331</ele><time>2026-04-06T12:08:10.999Z</time></trkpt><trkpt lat="46.3152897663176" lon="13.102535193871839"><ele>234.66666666666666</ele><time>2026-04-06T12:08:12.999Z</time></trkpt><trkpt lat="46.31529727798657" lon="13.102443129801566"><ele>235.0</ele><time>2026-04-06T12:11:11Z</time></trkpt><trkpt lat="46.31528737890131" lon="13.102323268033382"><ele>234.49999999999997</ele><time>2026-04-06T12:11:13Z</time></trkpt><trkpt lat="46.31529003114405" lon="13.102136928311863"><ele>234.0</ele><time>2026-04-06T12:11:15Z</time></trkpt><trkpt lat="46.31529294071765" lon="13.102015676151119"><ele>233.5</ele><time>2026-04-06T12:11:16Z</time></trkpt><trkpt lat="46.31529507559859" lon="13.101907530942407"><ele>233.0</ele><time>2026-04-06T12:11:17Z</time></trkpt><trkpt lat="46.31529707006594" lon="13.101807767907989"><ele>232.49999999999997</ele><time>2026-04-06T12:11:18Z</time></trkpt><trkpt lat="46.31530330649276" lon="13.10169368157425"><ele>232.0</ele><time>2026-04-06T12:11:19Z</time></trkpt><trkpt lat="46.315310111520084" lon="13.101563911310716"><ele>232.0</ele><time>2026-04-06T12:11:20Z</time></trkpt><trkpt lat="46.31530888105498" lon="13.10141294782806"><ele>232.0</ele><time>2026-04-06T12:11:21Z</time></trkpt><trkpt lat="46.31531449805798" lon="13.1012399879636"><ele>232.0</ele><time>2026-04-06T12:11:22Z</time></trkpt><trkpt lat="46.315322815323974" lon="13.101070168390086"><ele>232.0</ele><time>2026-04-06T12:11:23Z</time></trkpt><trkpt lat="46.31533081387715" lon="13.100977367796796"><ele>232.0</ele><time>2026-04-06T12:11:24Z</time></trkpt><trkpt lat="46.315332437611836" lon="13.100842508786906"><ele>233.6</ele><time>2026-04-06T12:11:25Z</time></trkpt><trkpt lat="46.31533748324516" lon="13.10072429942683"><ele>235.2</ele><time>2026-04-06T12:11:26Z</time></trkpt><trkpt lat="46.315341328088145" lon="13.10060129320421"><ele>236.8</ele><time>2026-04-06T12:11:27Z</time></trkpt><trkpt lat="46.31534383926379" lon="13.100462393022369"><ele>238.4</ele><time>2026-04-06T12:11:28Z</time></trkpt><trkpt lat="46.315356278670805" lon="13.100310493217663"><ele>240.0</ele><time>2026-04-06T12:11:29Z</time></trkpt><trkpt lat="46.315386308374464" lon="13.100141937166212"><ele>240.0</ele><time>2026-04-06T12:11:30Z</time></trkpt><trkpt lat="46.31544084209008" lon="13.099979200516799"><ele>240.0</ele><time>2026-04-06T12:11:31Z</time></trkpt><trkpt lat="46.31553085338043" lon="13.099852352707314"><ele>240.0</ele><time>2026-04-06T12:11:32Z</time></trkpt><trkpt lat="46.315607505887264" lon="13.099703242888502"><ele>240.0</ele><time>2026-04-06T12:11:33Z</time></trkpt><trkpt lat="46.31570636818498" lon="13.099582076594512"><ele>240.75</ele><time>2026-04-06T12:11:34Z</time></trkpt><trkpt lat="46.31580051407055" lon="13.099462506326008"><ele>241.5</ele><time>2026-04-06T12:11:35Z</time></trkpt><trkpt lat="46.31590164187364" lon="13.09933991163084"><ele>242.25</ele><time>2026-04-06T12:11:36Z</time></trkpt><trkpt lat="46.3160064461534" lon="13.099205220999409"><ele>243.0</ele><time>2026-04-06T12:11:37Z</time></trkpt><trkpt lat="46.31611294097401" lon="13.099062688314893"><ele>243.0</ele><time>2026-04-06T12:11:38Z</time></trkpt><trkpt lat="46.316209423428596" lon="13.09893639478506"><ele>243.0</ele><time>2026-04-06T12:11:39Z</time></trkpt><trkpt lat="46.316304568335575" lon="13.098815787670006"><ele>243.0</ele><time>2026-04-06T12:11:40Z</time></trkpt><trkpt lat="46.3164042774758" lon="13.098683093012268"><ele>243.0</ele><time>2026-04-06T12:11:41Z</time></trkpt><trkpt lat="46.31651619431459" lon="13.098549827469434"><ele>242.66666666666669</ele><time>2026-04-06T12:11:42Z</time></trkpt><trkpt lat="46.316623646649504" lon="13.098404963561865"><ele>242.33333333333334</ele><time>2026-04-06T12:11:43Z</time></trkpt><trkpt lat="46.31671172115239" lon="13.098232035139619"><ele>242.0</ele><time>2026-04-06T12:11:44Z</time></trkpt><trkpt lat="46.316804559984064" lon="13.098020934287748"><ele>241.66666666666669</ele><time>2026-04-06T12:11:45Z</time></trkpt><trkpt lat="46.316892842501225" lon="13.097820945265179"><ele>241.33333333333331</ele><time>2026-04-06T12:11:46Z</time></trkpt><trkpt lat="46.31696135056868" lon="13.09764034035943"><ele>241.0</ele><time>2026-04-06T12:11:47Z</time></trkpt><trkpt lat="46.31701350876444" lon="13.097438777114679"><ele>242.0</ele><time>2026-04-06T12:11:48Z</time></trkpt><trkpt lat="46.317053148440266" lon="13.097223078725072"><ele>243.0</ele><time>2026-04-06T12:11:49Z</time></trkpt><trkpt lat="46.31708901004573" lon="13.096978042946446"><ele>244.0</ele><time>2026-04-06T12:11:50Z</time></trkpt><trkpt lat="46.31711195701043" lon="13.096719352754121"><ele>247.33333333333331</ele><time>2026-04-06T12:11:51Z</time></trkpt><trkpt lat="46.31714409580218" lon="13.096466906017936"><ele>250.66666666666669</ele><time>2026-04-06T12:11:52Z</time></trkpt><trkpt lat="46.317143592131366" lon="13.096197164436184"><ele>254.0</ele><time>2026-04-06T12:11:53Z</time></trkpt><trkpt lat="46.3171390227508" lon="13.095897398629374"><ele>258.33333333333337</ele><time>2026-04-06T12:11:54Z</time></trkpt><trkpt lat="46.31713020921573" lon="13.09563641446179"><ele>262.6666666666667</ele><time>2026-04-06T12:11:55Z</time></trkpt><trkpt lat="46.31712948062936" lon="13.09541066313585"><ele>267.0</ele><time>2026-04-06T12:11:56Z</time></trkpt><trkpt lat="46.317129411401" lon="13.095209181205139"><ele>267.0</ele><time>2026-04-06T12:11:57Z</time></trkpt><trkpt lat="46.31713352205585" lon="13.095032613364822"><ele>267.0</ele><time>2026-04-06T12:11:58Z</time></trkpt><trkpt lat="46.3171424976302" lon="13.09488734887167"><ele>267.0</ele><time>2026-04-06T12:11:59Z</time></trkpt><trkpt lat="46.31713905528469" lon="13.094778455088818"><ele>267.0</ele><time>2026-04-06T12:12:00Z</time></trkpt><trkpt lat="46.31711647702236" lon="13.094685664462153"><ele>267.0</ele><time>2026-04-06T12:12:01Z</time></trkpt><trkpt lat="46.31706597580926" lon="13.094628819313305"><ele>267.0</ele><time>2026-04-06T12:12:02Z</time></trkpt><trkpt lat="46.316999837322655" lon="13.094620971031604"><ele>267.0</ele><time>2026-04-06T12:12:03Z</time></trkpt><trkpt lat="46.31692542513908" lon="13.09469020302052"><ele>267.0</ele><time>2026-04-06T12:12:04Z</time></trkpt><trkpt lat="46.31688523104229" lon="13.094831274172185"><ele>267.0</ele><time>2026-04-06T12:12:06Z</time></trkpt><trkpt lat="46.31684399817748" lon="13.09499495938964"><ele>267.0</ele><time>2026-04-06T12:12:08Z</time></trkpt><trkpt lat="46.31680692043136" lon="13.095077302148404"><ele>267.0</ele><time>2026-04-06T12:12:09Z</time></trkpt><trkpt lat="46.31675395295751" lon="13.095162819904816"><ele>267.0</ele><time>2026-04-06T12:12:10Z</time></trkpt><trkpt lat="46.31668353454297" lon="13.095223274672296"><ele>267.0</ele><time>2026-04-06T12:12:11Z</time></trkpt><trkpt lat="46.31659968709988" lon="13.095225060209586"><ele>267.0</ele><time>2026-04-06T12:12:12Z</time></trkpt><trkpt lat="46.316490547731206" lon="13.095223730190279"><ele>267.0</ele><time>2026-04-06T12:12:13Z</time></trkpt><trkpt lat="46.316371010575565" lon="13.095161475326245"><ele>267.0</ele><time>2026-04-06T12:12:14Z</time></trkpt><trkpt lat="46.31626654648946" lon="13.09509499215651"><ele>267.2</ele><time>2026-04-06T12:12:15Z</time></trkpt><trkpt lat="46.31619114505822" lon="13.095018773867395"><ele>267.4</ele><time>2026-04-06T12:12:16Z</time></trkpt><trkpt lat="46.31612364297925" lon="13.094968139743818"><ele>267.6</ele><time>2026-04-06T12:12:17Z</time></trkpt><trkpt lat="46.31603309571207" lon="13.094886224124659"><ele>267.8</ele><time>2026-04-06T12:12:19Z</time></trkpt><trkpt lat="46.31602384597715" lon="13.094790244161176"><ele>268.0</ele><time>2026-04-06T12:12:21Z</time></trkpt><trkpt lat="46.316144041223986" lon="13.09479658858188"><ele>268.0</ele><time>2026-04-06T12:12:23Z</time></trkpt><trkpt lat="46.316197318049575" lon="13.094879748357679"><ele>268.0</ele><time>2026-04-06T12:12:24Z</time></trkpt><trkpt lat="46.31627460381404" lon="13.094939030208804"><ele>268.0</ele><time>2026-04-06T12:12:25Z</time></trkpt><trkpt lat="46.31636374900262" lon="13.094969615909827"><ele>268.0</ele><time>2026-04-06T12:12:26Z</time></trkpt><trkpt lat="46.31644819603592" lon="13.094968085474552"><ele>268.0</ele><time>2026-04-06T12:12:27Z</time></trkpt><trkpt lat="46.31653059611804" lon="13.09490832291297"><ele>268.0</ele><time>2026-04-06T12:12:28Z</time></trkpt><trkpt lat="46.31660687970989" lon="13.094804856451477"><ele>270.75</ele><time>2026-04-06T12:12:29Z</time></trkpt><trkpt lat="46.31665744319002" lon="13.094674722649373"><ele>273.5</ele><time>2026-04-06T12:12:30Z</time></trkpt><trkpt lat="46.31667549631325" lon="13.094509495561901"><ele>276.25</ele><time>2026-04-06T12:12:31Z</time></trkpt><trkpt lat="46.316691363696464" lon="13.094330576156397"><ele>279.0</ele><time>2026-04-06T12:12:32Z</time></trkpt><trkpt lat="46.316706382245286" lon="13.094159134478646"><ele>281.25</ele><time>2026-04-06T12:12:33Z</time></trkpt><trkpt lat="46.316708965104134" lon="13.093988084486133"><ele>283.5</ele><time>2026-04-06T12:12:34Z</time></trkpt><trkpt lat="46.316683765077705" lon="13.093805426429633"><ele>285.75</ele><time>2026-04-06T12:12:35Z</time></trkpt><trkpt lat="46.31663340119967" lon="13.093627276543915"><ele>288.0</ele><time>2026-04-06T12:12:36Z</time></trkpt><trkpt lat="46.316585764615326" lon="13.093474173510119"><ele>288.0</ele><time>2026-04-06T12:12:37Z</time></trkpt><trkpt lat="46.31653222650577" lon="13.093331997353713"><ele>288.0</ele><time>2026-04-06T12:12:38Z</time></trkpt><trkpt lat="46.316461644836096" lon="13.093183455250003"><ele>288.0</ele><time>2026-04-06T12:12:39Z</time></trkpt><trkpt lat="46.31636692771913" lon="13.093050382919103"><ele>288.0</ele><time>2026-04-06T12:12:40Z</time></trkpt><trkpt lat="46.31625897534389" lon="13.09292063830261"><ele>291.5</ele><time>2026-04-06T12:12:41Z</time></trkpt><trkpt lat="46.31618570440036" lon="13.092781005879482"><ele>295.0</ele><time>2026-04-06T12:12:42Z</time></trkpt><trkpt lat="46.31613635371463" lon="13.092619177880506"><ele>298.5</ele><time>2026-04-06T12:12:43Z</time></trkpt><trkpt lat="46.316121522429924" lon="13.092442292439227"><ele>302.0</ele><time>2026-04-06T12:12:44Z</time></trkpt><trkpt lat="46.316102105728206" lon="13.092300891283315"><ele>303.0</ele><time>2026-04-06T12:12:45Z</time></trkpt><trkpt lat="46.316089416526765" lon="13.092178617893824"><ele>304.0</ele><time>2026-04-06T12:12:46Z</time></trkpt><trkpt lat="46.31613400178333" lon="13.092054172971688"><ele>305.0</ele><time>2026-04-06T12:12:47Z</time></trkpt><trkpt lat="46.31621345325461" lon="13.091929367458585"><ele>306.0</ele><time>2026-04-06T12:12:48Z</time></trkpt><trkpt lat="46.31629437419158" lon="13.091802377755858"><ele>307.0</ele><time>2026-04-06T12:12:49Z</time></trkpt><trkpt lat="46.31633621688509" lon="13.091671205571009"><ele>307.0</ele><time>2026-04-06T12:12:50Z</time></trkpt><trkpt lat="46.31634386302683" lon="13.09154637145634"><ele>307.0</ele><time>2026-04-06T12:12:51Z</time></trkpt><trkpt lat="46.31631953175708" lon="13.09141990027738"><ele>307.0</ele><time>2026-04-06T12:12:52Z</time></trkpt><trkpt lat="46.31627810841751" lon="13.091267423472113"><ele>307.0</ele><time>2026-04-06T12:12:53Z</time></trkpt><trkpt lat="46.31623013992141" lon="13.091102255949457"><ele>307.0</ele><time>2026-04-06T12:12:54Z</time></trkpt><trkpt lat="46.316188935018104" lon="13.090936290076332"><ele>307.0</ele><time>2026-04-06T12:12:55Z</time></trkpt><trkpt lat="46.31616971369724" lon="13.090793976699711"><ele>307.0</ele><time>2026-04-06T12:12:56Z</time></trkpt><trkpt lat="46.31621106605869" lon="13.090674177363791"><ele>307.0</ele><time>2026-04-06T12:12:57Z</time></trkpt><trkpt lat="46.31625227146638" lon="13.090530422019627"><ele>307.0</ele><time>2026-04-06T12:12:58Z</time></trkpt><trkpt lat="46.3163325220239" lon="13.090381177408878"><ele>307.0</ele><time>2026-04-06T12:12:59Z</time></trkpt><trkpt lat="46.31641473630651" lon="13.090222845082877"><ele>308.0</ele><time>2026-04-06T12:13:00Z</time></trkpt><trkpt lat="46.316480211378945" lon="13.090074574522076"><ele>309.0</ele><time>2026-04-06T12:13:01Z</time></trkpt><trkpt lat="46.31654119499692" lon="13.089942498320948"><ele>310.0</ele><time>2026-04-06T12:13:02Z</time></trkpt><trkpt lat="46.31661770655893" lon="13.089832496052386"><ele>311.0</ele><time>2026-04-06T12:13:03Z</time></trkpt><trkpt lat="46.316706056319546" lon="13.089757790577556"><ele>312.0</ele><time>2026-04-06T12:13:04Z</time></trkpt><trkpt lat="46.31680073408853" lon="13.089715126476957"><ele>312.0</ele><time>2026-04-06T12:13:05Z</time></trkpt><trkpt lat="46.316918262271045" lon="13.089696174607099"><ele>312.0</ele><time>2026-04-06T12:13:06.001Z</time></trkpt><trkpt lat="46.31705759192825" lon="13.08967559819272"><ele>312.0</ele><time>2026-04-06T12:13:07.001Z</time></trkpt><trkpt lat="46.31720920076086" lon="13.089630721526827"><ele>312.0</ele><time>2026-04-06T12:13:08.001Z</time></trkpt><trkpt lat="46.317350086874036" lon="13.08958722169372"><ele>313.25</ele><time>2026-04-06T12:13:09.001Z</time></trkpt><trkpt lat="46.317482258717604" lon="13.089548240352684"><ele>314.5</ele><time>2026-04-06T12:13:10.001Z</time></trkpt><trkpt lat="46.31762922711257" lon="13.089513691498139"><ele>315.75</ele><time>2026-04-06T12:13:11.001Z</time></trkpt><trkpt lat="46.317787926507926" lon="13.089460491461907"><ele>317.0</ele><time>2026-04-06T12:13:12.001Z</time></trkpt><trkpt lat="46.317949783476564" lon="13.089367059614082"><ele>319.33333333333337</ele><time>2026-04-06T12:13:13.001Z</time></trkpt><trkpt lat="46.31811405564723" lon="13.089236291293401"><ele>321.6666666666667</ele><time>2026-04-06T12:13:14.001Z</time></trkpt><trkpt lat="46.318269547551175" lon="13.089089793336274"><ele>324.0</ele><time>2026-04-06T12:13:15.001Z</time></trkpt><trkpt lat="46.31840366048223" lon="13.088950887199992"><ele>328.0</ele><time>2026-04-06T12:13:16.001Z</time></trkpt><trkpt lat="46.318527532999305" lon="13.08883698129704"><ele>332.0</ele><time>2026-04-06T12:13:17.001Z</time></trkpt><trkpt lat="46.31864100067285" lon="13.088748974217904"><ele>336.0</ele><time>2026-04-06T12:13:18.001Z</time></trkpt><trkpt lat="46.31875664483926" lon="13.088706952550526"><ele>340.0</ele><time>2026-04-06T12:13:19.001Z</time></trkpt><trkpt lat="46.31888833526367" lon="13.088708255239949"><ele>341.5</ele><time>2026-04-06T12:13:20.001Z</time></trkpt><trkpt lat="46.319022850000046" lon="13.088723262726242"><ele>343.0</ele><time>2026-04-06T12:13:21.001Z</time></trkpt><trkpt lat="46.31913983778996" lon="13.088732026265562"><ele>344.5</ele><time>2026-04-06T12:13:22.001Z</time></trkpt><trkpt lat="46.319254633385" lon="13.088733699202573"><ele>346.0</ele><time>2026-04-06T12:13:23.001Z</time></trkpt><trkpt lat="46.31938527121783" lon="13.088727171232327"><ele>346.0</ele><time>2026-04-06T12:13:24.001Z</time></trkpt><trkpt lat="46.31953332070452" lon="13.088712602066568"><ele>346.0</ele><time>2026-04-06T12:13:25.001Z</time></trkpt><trkpt lat="46.319697714071175" lon="13.088691268421462"><ele>346.0</ele><time>2026-04-06T12:13:26.001Z</time></trkpt><trkpt lat="46.31985697689613" lon="13.088675369211279"><ele>341.5</ele><time>2026-04-06T12:13:27.001Z</time></trkpt><trkpt lat="46.320007067331986" lon="13.08866018340126"><ele>337.0</ele><time>2026-04-06T12:13:28.001Z</time></trkpt><trkpt lat="46.320148924887114" lon="13.088644539778205"><ele>332.5</ele><time>2026-04-06T12:13:29.001Z</time></trkpt><trkpt lat="46.32028834647772" lon="13.088626134197634"><ele>328.0</ele><time>2026-04-06T12:13:30.001Z</time></trkpt><trkpt lat="46.32043768687272" lon="13.08860300545473"><ele>325.5</ele><time>2026-04-06T12:13:31.001Z</time></trkpt><trkpt lat="46.320593606587174" lon="13.088565300165923"><ele>323.0</ele><time>2026-04-06T12:13:32.001Z</time></trkpt><trkpt lat="46.32073406047853" lon="13.08851692268391"><ele>320.5</ele><time>2026-04-06T12:13:33.001Z</time></trkpt><trkpt lat="46.32085035213526" lon="13.088451322437516"><ele>318.0</ele><time>2026-04-06T12:13:34Z</time></trkpt><trkpt lat="46.32095119923597" lon="13.08836572611802"><ele>320.75</ele><time>2026-04-06T12:13:35Z</time></trkpt><trkpt lat="46.321039052753825" lon="13.08823585497603"><ele>323.5</ele><time>2026-04-06T12:13:36Z</time></trkpt><trkpt lat="46.321120844029046" lon="13.08805504630428"><ele>326.25</ele><time>2026-04-06T12:13:37Z</time></trkpt><trkpt lat="46.32119889454059" lon="13.087843378367026"><ele>329.0</ele><time>2026-04-06T12:13:38Z</time></trkpt><trkpt lat="46.32127410656264" lon="13.087625970785211"><ele>331.75</ele><time>2026-04-06T12:13:39Z</time></trkpt><trkpt lat="46.321343889306036" lon="13.087420845319285"><ele>334.5</ele><time>2026-04-06T12:13:40Z</time></trkpt><trkpt lat="46.32140788648002" lon="13.087234632794985"><ele>337.25</ele><time>2026-04-06T12:13:41Z</time></trkpt><trkpt lat="46.32147519190437" lon="13.087054975757352"><ele>340.0</ele><time>2026-04-06T12:13:42Z</time></trkpt><trkpt lat="46.321542296554" lon="13.086887517577974"><ele>332.5</ele><time>2026-04-06T12:13:43Z</time></trkpt><trkpt lat="46.321605069200245" lon="13.086725056094645"><ele>325.0</ele><time>2026-04-06T12:13:44Z</time></trkpt><trkpt lat="46.32166286414562" lon="13.086586148020132"><ele>317.5</ele><time>2026-04-06T12:13:45Z</time></trkpt><trkpt lat="46.321729175079746" lon="13.08646443622429"><ele>310.0</ele><time>2026-04-06T12:13:46Z</time></trkpt><trkpt lat="46.32181188879293" lon="13.0863582724195"><ele>309.6</ele><time>2026-04-06T12:13:47Z</time></trkpt><trkpt lat="46.32191258989138" lon="13.086294918766985"><ele>309.2</ele><time>2026-04-06T12:13:48Z</time></trkpt><trkpt lat="46.32201752393534" lon="13.086270492697096"><ele>308.8</ele><time>2026-04-06T12:13:49Z</time></trkpt><trkpt lat="46.32212747807818" lon="13.086265649473843"><ele>308.4</ele><time>2026-04-06T12:13:50Z</time></trkpt><trkpt lat="46.32224073204687" lon="13.086279594664166"><ele>308.0</ele><time>2026-04-06T12:13:51Z</time></trkpt><trkpt lat="46.32235180457668" lon="13.086278156039029"><ele>307.0</ele><time>2026-04-06T12:13:52Z</time></trkpt><trkpt lat="46.32245620849277" lon="13.086272786596313"><ele>306.0</ele><time>2026-04-06T12:13:53Z</time></trkpt><trkpt lat="46.32254741322279" lon="13.086276617228338"><ele>305.0</ele><time>2026-04-06T12:13:54Z</time></trkpt><trkpt lat="46.322632879695" lon="13.086312487308277"><ele>304.0</ele><time>2026-04-06T12:13:55Z</time></trkpt><trkpt lat="46.3227132470678" lon="13.086387029409666"><ele>303.0</ele><time>2026-04-06T12:13:56Z</time></trkpt><trkpt lat="46.32278020843821" lon="13.086497096114385"><ele>304.0</ele><time>2026-04-06T12:13:57Z</time></trkpt><trkpt lat="46.32284575670383" lon="13.086604306549498"><ele>305.0</ele><time>2026-04-06T12:13:58Z</time></trkpt><trkpt lat="46.32290446767539" lon="13.086714721989342"><ele>306.0</ele><time>2026-04-06T12:13:59Z</time></trkpt><trkpt lat="46.322966828061745" lon="13.086821713981275"><ele>307.0</ele><time>2026-04-06T12:14:00Z</time></trkpt><trkpt lat="46.323026583467914" lon="13.086927647243623"><ele>308.0</ele><time>2026-04-06T12:14:01Z</time></trkpt><trkpt lat="46.32308805212163" lon="13.087034202355497"><ele>306.57142857142856</ele><time>2026-04-06T12:14:02Z</time></trkpt><trkpt lat="46.32314479912981" lon="13.087129421991667"><ele>305.1428571428571</ele><time>2026-04-06T12:14:03Z</time></trkpt><trkpt lat="46.323195045521764" lon="13.087218527538877"><ele>303.7142857142857</ele><time>2026-04-06T12:14:04Z</time></trkpt><trkpt lat="46.32323614336809" lon="13.087296510856739"><ele>302.2857142857143</ele><time>2026-04-06T12:14:05Z</time></trkpt><trkpt lat="46.32327330191876" lon="13.087377369229925"><ele>300.85714285714283</ele><time>2026-04-06T12:14:06Z</time></trkpt><trkpt lat="46.323320323075436" lon="13.08745282217174"><ele>299.42857142857144</ele><time>2026-04-06T12:14:07Z</time></trkpt><trkpt lat="46.32337190745225" lon="13.087508606718833"><ele>298.0</ele><time>2026-04-06T12:14:08Z</time></trkpt><trkpt lat="46.32350264644349" lon="13.087511972018914"><ele>298.0</ele><time>2026-04-06T12:14:10Z</time></trkpt><trkpt lat="46.323567523290876" lon="13.087449389699579"><ele>298.0</ele><time>2026-04-06T12:14:11Z</time></trkpt><trkpt lat="46.32360107350152" lon="13.087343673280914"><ele>298.0</ele><time>2026-04-06T12:14:12Z</time></trkpt><trkpt lat="46.32360564229712" lon="13.087204081651102"><ele>298.0</ele><time>2026-04-06T12:14:13Z</time></trkpt><trkpt lat="46.32354373041522" lon="13.087053157004725"><ele>298.0</ele><time>2026-04-06T12:14:14Z</time></trkpt><trkpt lat="46.323519890811276" lon="13.086896696382789"><ele>296.0</ele><time>2026-04-06T12:14:15Z</time></trkpt><trkpt lat="46.32349032988269" lon="13.086758150378136"><ele>294.0</ele><time>2026-04-06T12:14:16Z</time></trkpt><trkpt lat="46.32344878802833" lon="13.086625875773109"><ele>292.0</ele><time>2026-04-06T12:14:17Z</time></trkpt><trkpt lat="46.32343294663836" lon="13.086472023483118"><ele>290.0</ele><time>2026-04-06T12:14:18Z</time></trkpt><trkpt lat="46.32344012446016" lon="13.086315721000679"><ele>288.0</ele><time>2026-04-06T12:14:19Z</time></trkpt><trkpt lat="46.32344745544175" lon="13.08616597654032"><ele>286.6</ele><time>2026-04-06T12:14:20Z</time></trkpt><trkpt lat="46.32344920719666" lon="13.086009954123014"><ele>285.20000000000005</ele><time>2026-04-06T12:14:21Z</time></trkpt><trkpt lat="46.32347914744108" lon="13.085872367358638"><ele>283.8</ele><time>2026-04-06T12:14:22Z</time></trkpt><trkpt lat="46.32350951553696" lon="13.085750900851762"><ele>282.40000000000003</ele><time>2026-04-06T12:14:23Z</time></trkpt><trkpt lat="46.32354418730698" lon="13.085641927318434"><ele>281.0</ele><time>2026-04-06T12:14:24Z</time></trkpt><trkpt lat="46.3235769601189" lon="13.085541120779391"><ele>280.40000000000003</ele><time>2026-04-06T12:14:25Z</time></trkpt><trkpt lat="46.323612485072154" lon="13.085457256081972"><ele>279.8</ele><time>2026-04-06T12:14:26Z</time></trkpt><trkpt lat="46.32368097152173" lon="13.085334348631918"><ele>279.20000000000005</ele><time>2026-04-06T12:14:28Z</time></trkpt><trkpt lat="46.323747029818456" lon="13.085242282692223"><ele>278.6</ele><time>2026-04-06T12:14:30Z</time></trkpt><trkpt lat="46.32382773082426" lon="13.085146609575508"><ele>278.0</ele><time>2026-04-06T12:14:32Z</time></trkpt><trkpt lat="46.32389935928351" lon="13.085060952611437"><ele>276.1666666666667</ele><time>2026-04-06T12:14:34Z</time></trkpt><trkpt lat="46.32397261978213" lon="13.084984311716298"><ele>274.33333333333337</ele><time>2026-04-06T12:14:36Z</time></trkpt><trkpt lat="46.3240281172306" lon="13.084898578058642"><ele>272.5</ele><time>2026-04-06T12:14:38Z</time></trkpt><trkpt lat="46.324063484523364" lon="13.084810204294783"><ele>270.6666666666667</ele><time>2026-04-06T12:14:40Z</time></trkpt><trkpt lat="46.32409534700657" lon="13.084700237797408"><ele>268.8333333333333</ele><time>2026-04-06T12:14:42Z</time></trkpt><trkpt lat="46.324130276206205" lon="13.084578699221867"><ele>267.0</ele><time>2026-04-06T12:14:44Z</time></trkpt><trkpt lat="46.32417545540314" lon="13.084424923040686"><ele>266.3333333333333</ele><time>2026-04-06T12:14:46Z</time></trkpt><trkpt lat="46.32420080915008" lon="13.084340251602114"><ele>265.6666666666667</ele><time>2026-04-06T12:14:47Z</time></trkpt><trkpt lat="46.324275432661125" lon="13.084187298147672"><ele>265.0</ele><time>2026-04-06T12:14:49Z</time></trkpt><trkpt lat="46.324328545247" lon="13.08412972849911"><ele>264.33333333333337</ele><time>2026-04-06T12:14:50Z</time></trkpt><trkpt lat="46.324386954289466" lon="13.084091606458475"><ele>263.6666666666667</ele><time>2026-04-06T12:14:51Z</time></trkpt><trkpt lat="46.32444579506689" lon="13.084055702582463"><ele>263.0</ele><time>2026-04-06T12:14:52Z</time></trkpt><trkpt lat="46.32451620879059" lon="13.083993064962002"><ele>262.2</ele><time>2026-04-06T12:14:53Z</time></trkpt><trkpt lat="46.32458473095194" lon="13.083930249232676"><ele>261.4</ele><time>2026-04-06T12:14:54Z</time></trkpt><trkpt lat="46.32466758312857" lon="13.083881100279969"><ele>260.59999999999997</ele><time>2026-04-06T12:14:55Z</time></trkpt><trkpt lat="46.32476007897655" lon="13.083809002458368"><ele>259.8</ele><time>2026-04-06T12:14:56Z</time></trkpt><trkpt lat="46.32483959279544" lon="13.08372135452009"><ele>259.0</ele><time>2026-04-06T12:14:57Z</time></trkpt><trkpt lat="46.32494811726055" lon="13.083627006145543"><ele>259.0</ele><time>2026-04-06T12:14:58Z</time></trkpt><trkpt lat="46.32505137092604" lon="13.083520998896736"><ele>259.0</ele><time>2026-04-06T12:14:59Z</time></trkpt><trkpt lat="46.3251563407821" lon="13.083405116230798"><ele>259.0</ele><time>2026-04-06T12:15:00Z</time></trkpt><trkpt lat="46.325256338920205" lon="13.083306473943708"><ele>259.0</ele><time>2026-04-06T12:15:01Z</time></trkpt><trkpt lat="46.325343961422426" lon="13.083203968763968"><ele>258.0</ele><time>2026-04-06T12:15:02Z</time></trkpt><trkpt lat="46.32542780513909" lon="13.083099033473466"><ele>257.0</ele><time>2026-04-06T12:15:03Z</time></trkpt><trkpt lat="46.32549823563225" lon="13.082988819884392"><ele>255.99999999999997</ele><time>2026-04-06T12:15:04Z</time></trkpt><trkpt lat="46.32557181614362" lon="13.08288757265667"><ele>255.0</ele><time>2026-04-06T12:15:05Z</time></trkpt><trkpt lat="46.32563882459954" lon="13.082791827545144"><ele>254.0</ele><time>2026-04-06T12:15:06Z</time></trkpt><trkpt lat="46.325705541917515" lon="13.082699185252572"><ele>254.0</ele><time>2026-04-06T12:15:07Z</time></trkpt><trkpt lat="46.325773429164656" lon="13.082597571107515"><ele>253.99999999999997</ele><time>2026-04-06T12:15:08Z</time></trkpt><trkpt lat="46.32585667648211" lon="13.08248311212289"><ele>253.99999999999997</ele><time>2026-04-06T12:15:09Z</time></trkpt><trkpt lat="46.325932007787046" lon="13.082384657648692"><ele>254.0</ele><time>2026-04-06T12:15:10Z</time></trkpt><trkpt lat="46.32600147902351" lon="13.082315470064522"><ele>254.0</ele><time>2026-04-06T12:15:11Z</time></trkpt><trkpt lat="46.326086291266456" lon="13.082231943610228"><ele>253.0</ele><time>2026-04-06T12:15:12Z</time></trkpt><trkpt lat="46.32619218099223" lon="13.082131211008365"><ele>252.0</ele><time>2026-04-06T12:15:13Z</time></trkpt><trkpt lat="46.3263086048861" lon="13.082018064131123"><ele>251.0</ele><time>2026-04-06T12:15:14Z</time></trkpt><trkpt lat="46.32640835772905" lon="13.081924952038223"><ele>250.0</ele><time>2026-04-06T12:15:15Z</time></trkpt><trkpt lat="46.3265102586804" lon="13.08184586958989"><ele>249.66666666666666</ele><time>2026-04-06T12:15:16Z</time></trkpt><trkpt lat="46.32660216144195" lon="13.081771370346003"><ele>249.33333333333331</ele><time>2026-04-06T12:15:17Z</time></trkpt><trkpt lat="46.326669104359226" lon="13.08170975579711"><ele>249.0</ele><time>2026-04-06T12:15:18Z</time></trkpt><trkpt lat="46.32672647515162" lon="13.081665033524084"><ele>248.66666666666669</ele><time>2026-04-06T12:15:19Z</time></trkpt><trkpt lat="46.32681098781541" lon="13.081596229365378"><ele>248.33333333333334</ele><time>2026-04-06T12:15:21Z</time></trkpt><trkpt lat="46.326890729445225" lon="13.081607417995032"><ele>248.0</ele><time>2026-04-06T12:15:23Z</time></trkpt><trkpt lat="46.327000078282886" lon="13.081694435241864"><ele>248.0</ele><time>2026-04-06T12:15:26Z</time></trkpt></trkseg></trk></gpx>